VIR12V EGLL-FACT
Flight info
| Callsign | VIR12V |
|---|---|
| Flight time | 11h 9m |
| Altitude | 41000 |
| Route | MAXIT Y803 MID L612 BOGNA UL612 VEULE DCT OLTAF DCT VASOL DCT DEKOD UN857 DISAK DCT GERVA DCT ATSUP DCT MINPA DCT FJR DCT OBLAD DCT KAMER UM998 CSO UA605 DJA UB730 DIR UA607 FL UA403 BZ DCT KSA UT943 VEDRY UN185 OKLOK DCT ERDAS |
| Aircraft | B789/H-SDE1E2E3FGHIJ2J3J4J5M1RWXY/LB1D1 |
Departure
| Time | 2026-05-03 20:24 |
|---|---|
| Airport | London Heathrow Airport (EGLL) |
Arrival
| Time | 2026-05-04 07:34 |
|---|---|
| Airport | Cape Town International Airport (FACT) |
| Time | Latitude | Longitude | Altitude | Speed | Heading |
|---|---|---|---|---|---|
| 2026-05-03 20:15 | 51.46753 | -0.44402 | 92 ft | 0 kts | 90° |
| 2026-05-03 20:16 | 51.46753 | -0.44387 | 93 ft | 4 kts | 90° |
| 2026-05-03 20:16 | 51.46754 | -0.44304 | 94 ft | 9 kts | 90° |
| 2026-05-03 20:16 | 51.46753 | -0.44225 | 94 ft | 0 kts | 90° |
| 2026-05-03 20:17 | 51.46753 | -0.44222 | 94 ft | 2 kts | 90° |
| 2026-05-03 20:17 | 51.46753 | -0.44182 | 92 ft | 5 kts | 90° |
| 2026-05-03 20:18 | 51.46760 | -0.44076 | 95 ft | 14 kts | 78° |
| 2026-05-03 20:18 | 51.46771 | -0.43878 | 94 ft | 21 kts | 90° |
| 2026-05-03 20:18 | 51.46770 | -0.43667 | 94 ft | 16 kts | 96° |
| 2026-05-03 20:18 | 51.46716 | -0.43606 | 93 ft | 8 kts | 180° |
| 2026-05-03 20:19 | 51.46667 | -0.43606 | 91 ft | 6 kts | 180° |
| 2026-05-03 20:19 | 51.46631 | -0.43605 | 91 ft | 4 kts | 180° |
| 2026-05-03 20:19 | 51.46622 | -0.43605 | 91 ft | 0 kts | 179° |
| 2026-05-03 20:19 | 51.46621 | -0.43605 | 91 ft | 0 kts | 179° |
| 2026-05-03 20:20 | 51.46617 | -0.43605 | 91 ft | 3 kts | 179° |
| 2026-05-03 20:20 | 51.46575 | -0.43605 | 92 ft | 9 kts | 179° |
| 2026-05-03 20:20 | 51.46501 | -0.43628 | 95 ft | 10 kts | 226° |
| 2026-05-03 20:20 | 51.46493 | -0.43710 | 93 ft | 7 kts | 273° |
| 2026-05-03 20:21 | 51.46493 | -0.43714 | 93 ft | 0 kts | 272° |
| 2026-05-03 20:23 | 51.46495 | -0.43767 | 91 ft | 16 kts | 271° |
| 2026-05-03 20:23 | 51.46492 | -0.44233 | 92 ft | 69 kts | 269° |
| 2026-05-03 20:23 | 51.46488 | -0.45285 | 93 ft | 119 kts | 270° |
| 2026-05-03 20:24 | 51.46485 | -0.46861 | 98 ft | 161 kts | 270° |
| 2026-05-03 20:24 | 51.46477 | -0.48739 | 419 ft | 160 kts | 273° |
| 2026-05-03 20:24 | 51.46474 | -0.50461 | 830 ft | 153 kts | 270° |
| 2026-05-03 20:24 | 51.46475 | -0.52236 | 961 ft | 164 kts | 269° |
| 2026-05-03 20:25 | 51.46437 | -0.54113 | 1170 ft | 170 kts | 263° |
| 2026-05-03 20:25 | 51.46075 | -0.55855 | 1591 ft | 164 kts | 239° |
| 2026-05-03 20:25 | 51.45347 | -0.57283 | 1824 ft | 170 kts | 226° |
| 2026-05-03 20:25 | 51.44501 | -0.58646 | 2089 ft | 175 kts | 225° |
| 2026-05-03 20:26 | 51.43620 | -0.59986 | 2501 ft | 175 kts | 224° |
| 2026-05-03 20:26 | 51.42703 | -0.61339 | 2761 ft | 183 kts | 214° |
| 2026-05-03 20:26 | 51.41614 | -0.62370 | 3030 ft | 193 kts | 215° |
| 2026-05-03 20:26 | 51.40451 | -0.63674 | 3058 ft | 218 kts | 205° |
| 2026-05-03 20:27 | 51.38897 | -0.63752 | 3186 ft | 236 kts | 159° |
| 2026-05-03 20:27 | 51.37438 | -0.62471 | 3617 ft | 245 kts | 149° |
| 2026-05-03 20:27 | 51.35908 | -0.61155 | 3991 ft | 261 kts | 158° |
| 2026-05-03 20:27 | 51.34171 | -0.60264 | 4676 ft | 263 kts | 166° |
| 2026-05-03 20:28 | 51.32387 | -0.59560 | 5396 ft | 265 kts | 167° |
| 2026-05-03 20:28 | 51.30601 | -0.58788 | 6099 ft | 267 kts | 165° |
| 2026-05-03 20:28 | 51.28809 | -0.57949 | 6780 ft | 269 kts | 165° |
| 2026-05-03 20:28 | 51.27001 | -0.57112 | 7427 ft | 272 kts | 165° |
| 2026-05-03 20:29 | 51.25157 | -0.56385 | 8049 ft | 274 kts | 178° |
| 2026-05-03 20:29 | 51.23286 | -0.56776 | 8627 ft | 274 kts | 192° |
| 2026-05-03 20:29 | 51.21397 | -0.57347 | 9262 ft | 277 kts | 192° |
| 2026-05-03 20:29 | 51.19500 | -0.57950 | 9904 ft | 279 kts | 192° |
| 2026-05-03 20:30 | 51.17553 | -0.58590 | 10121 ft | 297 kts | 192° |
| 2026-05-03 20:30 | 51.15448 | -0.59274 | 10175 ft | 320 kts | 192° |
| 2026-05-03 20:30 | 51.13199 | -0.59995 | 10389 ft | 335 kts | 192° |
| 2026-05-03 20:30 | 51.10916 | -0.60725 | 11080 ft | 334 kts | 192° |
| 2026-05-03 20:31 | 51.08620 | -0.61464 | 11661 ft | 337 kts | 192° |
| 2026-05-03 20:31 | 51.06286 | -0.61785 | 12230 ft | 340 kts | 174° |
| 2026-05-03 20:31 | 51.03993 | -0.60827 | 12797 ft | 345 kts | 155° |
| 2026-05-03 20:31 | 51.01927 | -0.58843 | 13337 ft | 350 kts | 149° |
| 2026-05-03 20:32 | 50.99911 | -0.56691 | 13903 ft | 352 kts | 147° |
| 2026-05-03 20:32 | 50.97914 | -0.54494 | 14375 ft | 355 kts | 148° |
| 2026-05-03 20:32 | 50.95835 | -0.52267 | 14887 ft | 358 kts | 148° |
| 2026-05-03 20:32 | 50.93779 | -0.50104 | 15360 ft | 360 kts | 148° |
| 2026-05-03 20:33 | 50.91749 | -0.47953 | 15823 ft | 363 kts | 148° |
| 2026-05-03 20:33 | 50.89648 | -0.45711 | 16298 ft | 366 kts | 148° |
| 2026-05-03 20:33 | 50.87525 | -0.43453 | 16769 ft | 369 kts | 149° |
| 2026-05-03 20:33 | 50.85381 | -0.41182 | 17218 ft | 372 kts | 149° |
| 2026-05-03 20:34 | 50.83222 | -0.38898 | 17696 ft | 374 kts | 149° |
| 2026-05-03 20:34 | 50.81044 | -0.36594 | 18142 ft | 377 kts | 149° |
| 2026-05-03 20:34 | 50.78854 | -0.34280 | 18540 ft | 379 kts | 149° |
| 2026-05-03 20:34 | 50.76657 | -0.31960 | 18947 ft | 380 kts | 149° |
| 2026-05-03 20:35 | 50.74447 | -0.29632 | 19356 ft | 382 kts | 149° |
| 2026-05-03 20:35 | 50.72225 | -0.27292 | 19751 ft | 384 kts | 149° |
| 2026-05-03 20:35 | 50.70029 | -0.24982 | 20138 ft | 385 kts | 149° |
| 2026-05-03 20:35 | 50.67791 | -0.22630 | 20510 ft | 387 kts | 149° |
| 2026-05-03 20:36 | 50.65547 | -0.20273 | 20882 ft | 388 kts | 149° |
| 2026-05-03 20:36 | 50.63293 | -0.17910 | 21237 ft | 390 kts | 150° |
| 2026-05-03 20:36 | 50.61027 | -0.15537 | 21591 ft | 391 kts | 150° |
| 2026-05-03 20:36 | 50.58753 | -0.13159 | 21941 ft | 393 kts | 150° |
| 2026-05-03 20:37 | 50.56474 | -0.10777 | 22268 ft | 395 kts | 150° |
| 2026-05-03 20:37 | 50.54178 | -0.08380 | 22574 ft | 396 kts | 150° |
| 2026-05-03 20:37 | 50.51874 | -0.05978 | 22910 ft | 398 kts | 150° |
| 2026-05-03 20:37 | 50.49562 | -0.03571 | 23231 ft | 399 kts | 150° |
| 2026-05-03 20:38 | 50.47241 | -0.01158 | 23532 ft | 401 kts | 150° |
| 2026-05-03 20:38 | 50.44912 | 0.01262 | 23748 ft | 403 kts | 150° |
| 2026-05-03 20:38 | 50.42571 | 0.03691 | 24012 ft | 404 kts | 150° |
| 2026-05-03 20:38 | 50.40224 | 0.06122 | 24227 ft | 405 kts | 150° |
| 2026-05-03 20:39 | 50.37910 | 0.08516 | 24480 ft | 406 kts | 150° |
| 2026-05-03 20:39 | 50.36311 | 0.10169 | 24639 ft | 407 kts | 150° |
| 2026-05-03 20:39 | 50.33943 | 0.12611 | 24881 ft | 408 kts | 150° |
| 2026-05-03 20:39 | 50.31565 | 0.15059 | 25130 ft | 409 kts | 150° |
| 2026-05-03 20:40 | 50.29185 | 0.17507 | 25345 ft | 411 kts | 150° |
| 2026-05-03 20:40 | 50.26794 | 0.19964 | 25591 ft | 412 kts | 150° |
| 2026-05-03 20:40 | 50.24396 | 0.22426 | 25830 ft | 413 kts | 151° |
| 2026-05-03 20:40 | 50.21987 | 0.24895 | 26052 ft | 414 kts | 151° |
| 2026-05-03 20:41 | 50.19602 | 0.27337 | 26293 ft | 415 kts | 151° |
| 2026-05-03 20:41 | 50.17182 | 0.29826 | 26489 ft | 417 kts | 151° |
| 2026-05-03 20:41 | 50.14759 | 0.32326 | 26732 ft | 418 kts | 151° |
| 2026-05-03 20:41 | 50.12321 | 0.34831 | 26957 ft | 419 kts | 151° |
| 2026-05-03 20:42 | 50.09881 | 0.37330 | 27190 ft | 421 kts | 151° |
| 2026-05-03 20:42 | 50.07431 | 0.39838 | 27406 ft | 422 kts | 151° |
| 2026-05-03 20:42 | 50.04972 | 0.42356 | 27638 ft | 423 kts | 151° |
| 2026-05-03 20:42 | 50.02505 | 0.44878 | 27866 ft | 425 kts | 151° |
| 2026-05-03 20:43 | 50.00026 | 0.47407 | 28140 ft | 424 kts | 152° |
| 2026-05-03 20:43 | 49.97588 | 0.49891 | 28364 ft | 426 kts | 152° |
| 2026-05-03 20:43 | 49.95106 | 0.52419 | 28577 ft | 427 kts | 152° |
| 2026-05-03 20:43 | 49.92615 | 0.54950 | 28810 ft | 428 kts | 152° |
| 2026-05-03 20:44 | 49.90114 | 0.57490 | 29017 ft | 430 kts | 152° |
| 2026-05-03 20:44 | 49.87605 | 0.60035 | 29268 ft | 431 kts | 153° |
| 2026-05-03 20:44 | 49.85091 | 0.62581 | 29494 ft | 432 kts | 153° |
| 2026-05-03 20:44 | 49.82554 | 0.65112 | 29727 ft | 433 kts | 153° |
| 2026-05-03 20:45 | 49.80000 | 0.67617 | 29976 ft | 434 kts | 153° |
| 2026-05-03 20:45 | 49.77478 | 0.70103 | 30168 ft | 436 kts | 153° |
| 2026-05-03 20:45 | 49.74921 | 0.72643 | 30377 ft | 437 kts | 153° |
| 2026-05-03 20:45 | 49.72359 | 0.75181 | 30570 ft | 438 kts | 153° |
| 2026-05-03 20:46 | 49.69783 | 0.77716 | 30759 ft | 439 kts | 154° |
| 2026-05-03 20:46 | 49.67197 | 0.80258 | 30966 ft | 441 kts | 154° |
| 2026-05-03 20:46 | 49.64608 | 0.82806 | 31168 ft | 442 kts | 153° |
| 2026-05-03 20:46 | 49.62011 | 0.85361 | 31378 ft | 443 kts | 154° |
| 2026-05-03 20:47 | 49.59411 | 0.87913 | 31664 ft | 442 kts | 154° |
| 2026-05-03 20:47 | 49.56817 | 0.90454 | 31938 ft | 441 kts | 154° |
| 2026-05-03 20:47 | 49.54222 | 0.92994 | 32246 ft | 440 kts | 154° |
| 2026-05-03 20:47 | 49.51952 | 0.95211 | 32513 ft | 440 kts | 154° |
| 2026-05-03 20:48 | 49.49372 | 0.97731 | 32892 ft | 437 kts | 154° |
| 2026-05-03 20:48 | 49.46805 | 1.00234 | 33221 ft | 436 kts | 155° |
| 2026-05-03 20:48 | 49.44240 | 1.02731 | 33509 ft | 436 kts | 155° |
| 2026-05-03 20:48 | 49.41678 | 1.05221 | 33800 ft | 436 kts | 155° |
| 2026-05-03 20:49 | 49.39121 | 1.07707 | 34061 ft | 435 kts | 155° |
| 2026-05-03 20:49 | 49.36559 | 1.10192 | 34254 ft | 436 kts | 155° |
| 2026-05-03 20:49 | 49.33990 | 1.12680 | 34426 ft | 437 kts | 154° |
| 2026-05-03 20:49 | 49.31417 | 1.15170 | 34617 ft | 438 kts | 154° |
| 2026-05-03 20:50 | 49.28836 | 1.17666 | 34789 ft | 438 kts | 154° |
| 2026-05-03 20:50 | 49.26258 | 1.20156 | 35005 ft | 438 kts | 154° |
| 2026-05-03 20:50 | 49.23677 | 1.22643 | 35172 ft | 439 kts | 154° |
| 2026-05-03 20:50 | 49.21088 | 1.25134 | 35340 ft | 440 kts | 154° |
| 2026-05-03 20:51 | 49.18496 | 1.27628 | 35510 ft | 441 kts | 154° |
| 2026-05-03 20:51 | 49.15930 | 1.30093 | 35670 ft | 442 kts | 154° |
| 2026-05-03 20:51 | 49.13322 | 1.32594 | 35799 ft | 443 kts | 154° |
| 2026-05-03 20:51 | 49.10719 | 1.35090 | 36020 ft | 442 kts | 154° |
| 2026-05-03 20:52 | 49.08109 | 1.37587 | 36169 ft | 443 kts | 154° |
| 2026-05-03 20:52 | 49.05494 | 1.40085 | 36327 ft | 443 kts | 154° |
| 2026-05-03 20:52 | 49.02876 | 1.42584 | 36461 ft | 444 kts | 153° |
| 2026-05-03 20:52 | 49.00253 | 1.45085 | 36625 ft | 445 kts | 153° |
| 2026-05-03 20:53 | 48.97624 | 1.47588 | 36779 ft | 446 kts | 153° |
| 2026-05-03 20:53 | 48.94993 | 1.50089 | 36949 ft | 446 kts | 153° |
| 2026-05-03 20:53 | 48.92353 | 1.52596 | 37070 ft | 447 kts | 153° |
| 2026-05-03 20:53 | 48.89712 | 1.55101 | 37215 ft | 448 kts | 153° |
| 2026-05-03 20:54 | 48.87065 | 1.57609 | 37354 ft | 448 kts | 153° |
| 2026-05-03 20:54 | 48.81761 | 1.62624 | 37629 ft | 450 kts | 153° |
| 2026-05-03 20:54 | 48.79093 | 1.65142 | 37765 ft | 450 kts | 152° |
| 2026-05-03 20:55 | 48.76429 | 1.67653 | 37898 ft | 451 kts | 152° |
| 2026-05-03 20:55 | 48.73760 | 1.70165 | 38032 ft | 452 kts | 152° |
| 2026-05-03 20:55 | 48.71124 | 1.72643 | 38151 ft | 452 kts | 152° |
| 2026-05-03 20:55 | 48.68448 | 1.75156 | 38278 ft | 452 kts | 152° |
| 2026-05-03 20:56 | 48.65783 | 1.77657 | 38486 ft | 451 kts | 152° |
| 2026-05-03 20:56 | 48.63114 | 1.80155 | 38585 ft | 451 kts | 152° |
| 2026-05-03 20:56 | 48.57768 | 1.85152 | 38769 ft | 452 kts | 152° |
| 2026-05-03 20:57 | 48.52345 | 1.89984 | 38921 ft | 451 kts | 155° |
| 2026-05-03 20:57 | 48.46845 | 1.94611 | 39102 ft | 452 kts | 154° |
| 2026-05-03 20:58 | 48.41341 | 1.99193 | 39244 ft | 452 kts | 155° |
| 2026-05-03 20:58 | 48.35820 | 2.03788 | 39394 ft | 453 kts | 155° |
| 2026-05-03 20:59 | 48.30321 | 2.08323 | 39549 ft | 452 kts | 160° |
| 2026-05-03 20:59 | 48.24358 | 2.10839 | 39682 ft | 443 kts | 175° |
| 2026-05-03 21:00 | 48.19271 | 2.11922 | 39739 ft | 445 kts | 175° |
| 2026-05-03 21:00 | 48.12108 | 2.13611 | 39865 ft | 448 kts | 167° |
| 2026-05-03 21:01 | 48.06085 | 2.15869 | 39897 ft | 450 kts | 170° |
| 2026-05-03 21:01 | 48.00021 | 2.18105 | 39995 ft | 452 kts | 169° |
| 2026-05-03 21:02 | 47.93909 | 2.20380 | 39988 ft | 451 kts | 169° |
| 2026-05-03 21:02 | 47.87840 | 2.22611 | 39986 ft | 450 kts | 169° |
| 2026-05-03 21:03 | 47.81753 | 2.24859 | 39988 ft | 448 kts | 169° |
| 2026-05-03 21:03 | 47.75699 | 2.27080 | 39966 ft | 448 kts | 169° |
| 2026-05-03 21:04 | 47.69654 | 2.29297 | 39963 ft | 449 kts | 169° |
| 2026-05-03 21:04 | 47.63567 | 2.31522 | 39974 ft | 451 kts | 169° |
| 2026-05-03 21:05 | 47.57466 | 2.33748 | 39983 ft | 452 kts | 169° |
| 2026-05-03 21:05 | 47.51351 | 2.35973 | 39991 ft | 452 kts | 169° |
| 2026-05-03 21:06 | 47.45290 | 2.38174 | 39991 ft | 451 kts | 169° |
| 2026-05-03 21:06 | 47.39202 | 2.40379 | 39987 ft | 450 kts | 169° |
| 2026-05-03 21:07 | 47.33164 | 2.42560 | 39987 ft | 448 kts | 169° |
| 2026-05-03 21:07 | 47.27091 | 2.44749 | 39984 ft | 449 kts | 169° |
| 2026-05-03 21:08 | 47.21014 | 2.46934 | 39987 ft | 450 kts | 169° |
| 2026-05-03 21:08 | 47.14948 | 2.49111 | 39991 ft | 446 kts | 169° |
| 2026-05-03 21:09 | 47.08941 | 2.51261 | 39994 ft | 443 kts | 169° |
| 2026-05-03 21:09 | 47.02987 | 2.53387 | 39994 ft | 443 kts | 169° |
| 2026-05-03 21:10 | 46.96979 | 2.55528 | 39997 ft | 444 kts | 169° |
| 2026-05-03 21:10 | 46.90957 | 2.57668 | 39995 ft | 445 kts | 169° |
| 2026-05-03 21:11 | 46.84920 | 2.59808 | 39998 ft | 447 kts | 169° |
| 2026-05-03 21:11 | 46.78873 | 2.61948 | 40013 ft | 448 kts | 169° |
| 2026-05-03 21:12 | 46.72823 | 2.64084 | 40003 ft | 447 kts | 169° |
| 2026-05-03 21:12 | 46.66778 | 2.66213 | 39998 ft | 445 kts | 169° |
| 2026-05-03 21:13 | 46.60794 | 2.68316 | 39993 ft | 444 kts | 169° |
| 2026-05-03 21:13 | 46.54782 | 2.70423 | 39995 ft | 444 kts | 169° |
| 2026-05-03 21:14 | 46.48759 | 2.72529 | 39999 ft | 446 kts | 170° |
| 2026-05-03 21:14 | 46.42706 | 2.74642 | 40008 ft | 447 kts | 169° |
| 2026-05-03 21:15 | 46.36692 | 2.76736 | 40010 ft | 448 kts | 170° |
| 2026-05-03 21:15 | 46.30637 | 2.78840 | 40010 ft | 447 kts | 170° |
| 2026-05-03 21:16 | 46.24578 | 2.80940 | 40001 ft | 446 kts | 170° |
| 2026-05-03 21:16 | 46.18555 | 2.83023 | 40000 ft | 444 kts | 170° |
| 2026-05-03 21:17 | 46.13521 | 2.84759 | 39998 ft | 444 kts | 170° |
| 2026-05-03 21:17 | 46.06538 | 2.87163 | 39999 ft | 445 kts | 170° |
| 2026-05-03 21:18 | 46.00459 | 2.88743 | 40016 ft | 445 kts | 173° |
| 2026-05-03 21:18 | 45.94378 | 2.90283 | 40025 ft | 446 kts | 173° |
| 2026-05-03 21:19 | 45.88277 | 2.91791 | 40022 ft | 444 kts | 173° |
| 2026-05-03 21:19 | 45.82196 | 2.93308 | 40018 ft | 443 kts | 173° |
| 2026-05-03 21:20 | 45.76128 | 2.94810 | 40016 ft | 441 kts | 173° |
| 2026-05-03 21:20 | 45.70130 | 2.96743 | 40017 ft | 443 kts | 170° |
| 2026-05-03 21:21 | 45.64119 | 2.98828 | 40026 ft | 446 kts | 169° |
| 2026-05-03 21:21 | 45.58164 | 3.00927 | 40022 ft | 447 kts | 169° |
| 2026-05-03 21:22 | 45.52122 | 3.03034 | 40019 ft | 446 kts | 170° |
| 2026-05-03 21:22 | 45.46084 | 3.05142 | 40021 ft | 446 kts | 170° |
| 2026-05-03 21:23 | 45.40046 | 3.07242 | 40028 ft | 445 kts | 170° |
| 2026-05-03 21:23 | 45.34024 | 3.09334 | 40022 ft | 445 kts | 170° |
| 2026-05-03 21:24 | 45.28051 | 3.11403 | 40028 ft | 444 kts | 170° |
| 2026-05-03 21:24 | 45.22035 | 3.13483 | 40029 ft | 445 kts | 170° |
| 2026-05-03 21:25 | 45.16017 | 3.15559 | 40037 ft | 445 kts | 170° |
| 2026-05-03 21:25 | 45.10010 | 3.17715 | 40047 ft | 446 kts | 162° |
| 2026-05-03 21:26 | 45.04179 | 3.20860 | 40048 ft | 449 kts | 164° |
| 2026-05-03 21:26 | 44.98349 | 3.23972 | 40057 ft | 451 kts | 163° |
| 2026-05-03 21:27 | 44.92492 | 3.27128 | 40052 ft | 450 kts | 163° |
| 2026-05-03 21:27 | 44.87619 | 3.29723 | 40055 ft | 449 kts | 163° |
| 2026-05-03 21:28 | 44.81786 | 3.32845 | 40048 ft | 448 kts | 163° |
| 2026-05-03 21:28 | 44.75958 | 3.35946 | 40051 ft | 448 kts | 163° |
| 2026-05-03 21:29 | 44.70119 | 3.39051 | 40063 ft | 449 kts | 163° |
| 2026-05-03 21:29 | 44.64258 | 3.42160 | 40068 ft | 451 kts | 163° |
| 2026-05-03 21:30 | 44.58379 | 3.45272 | 40073 ft | 451 kts | 163° |
| 2026-05-03 21:30 | 44.52495 | 3.48380 | 40066 ft | 450 kts | 163° |
| 2026-05-03 21:31 | 44.46646 | 3.51462 | 40076 ft | 448 kts | 163° |
| 2026-05-03 21:31 | 44.40808 | 3.54532 | 40066 ft | 448 kts | 163° |
| 2026-05-03 21:32 | 44.35013 | 3.57574 | 40072 ft | 448 kts | 163° |
| 2026-05-03 21:32 | 44.29166 | 3.60635 | 40075 ft | 448 kts | 163° |
| 2026-05-03 21:33 | 44.23311 | 3.63695 | 40072 ft | 449 kts | 163° |
| 2026-05-03 21:33 | 44.17502 | 3.66724 | 40075 ft | 448 kts | 163° |
| 2026-05-03 21:34 | 44.11651 | 3.69768 | 40074 ft | 449 kts | 163° |
| 2026-05-03 21:34 | 44.05794 | 3.72809 | 40080 ft | 450 kts | 163° |
| 2026-05-03 21:35 | 43.99925 | 3.75850 | 40080 ft | 451 kts | 163° |
| 2026-05-03 21:35 | 43.94033 | 3.78897 | 40067 ft | 452 kts | 163° |
| 2026-05-03 21:36 | 43.88173 | 3.81920 | 40071 ft | 452 kts | 164° |
| 2026-05-03 21:36 | 43.82275 | 3.84957 | 40070 ft | 451 kts | 164° |
| 2026-05-03 21:37 | 43.76405 | 3.87973 | 40051 ft | 449 kts | 164° |
| 2026-05-03 21:37 | 43.70546 | 3.90976 | 40065 ft | 449 kts | 164° |
| 2026-05-03 21:38 | 43.64671 | 3.93983 | 40061 ft | 451 kts | 164° |
| 2026-05-03 21:38 | 43.58810 | 3.96975 | 40079 ft | 452 kts | 164° |
| 2026-05-03 21:39 | 43.53022 | 4.00404 | 40081 ft | 454 kts | 161° |
| 2026-05-03 21:39 | 43.47213 | 4.03887 | 40080 ft | 455 kts | 161° |
| 2026-05-03 21:40 | 43.41433 | 4.07388 | 40074 ft | 453 kts | 161° |
| 2026-05-03 21:40 | 43.35655 | 4.10857 | 40049 ft | 451 kts | 161° |
| 2026-05-03 21:41 | 43.29901 | 4.14316 | 40060 ft | 453 kts | 161° |
| 2026-05-03 21:41 | 43.24141 | 4.17766 | 40059 ft | 455 kts | 161° |
| 2026-05-03 21:42 | 43.18331 | 4.21243 | 40058 ft | 455 kts | 161° |
| 2026-05-03 21:42 | 43.12543 | 4.24697 | 40066 ft | 452 kts | 161° |
| 2026-05-03 21:43 | 43.06758 | 4.28140 | 40051 ft | 454 kts | 161° |
| 2026-05-03 21:43 | 43.00983 | 4.31574 | 40056 ft | 455 kts | 161° |
| 2026-05-03 21:44 | 42.95162 | 4.35026 | 40072 ft | 456 kts | 161° |
| 2026-05-03 21:44 | 42.89341 | 4.38473 | 40060 ft | 455 kts | 161° |
| 2026-05-03 21:45 | 42.83583 | 4.41873 | 40061 ft | 453 kts | 161° |
| 2026-05-03 21:45 | 42.77806 | 4.45278 | 40053 ft | 452 kts | 161° |
| 2026-05-03 21:46 | 42.72026 | 4.48678 | 40062 ft | 453 kts | 161° |
| 2026-05-03 21:46 | 42.66214 | 4.52090 | 40064 ft | 455 kts | 161° |
| 2026-05-03 21:47 | 42.60389 | 4.55503 | 40058 ft | 456 kts | 161° |
| 2026-05-03 21:47 | 42.54564 | 4.58910 | 40057 ft | 455 kts | 161° |
| 2026-05-03 21:48 | 42.48754 | 4.62299 | 40047 ft | 455 kts | 161° |
| 2026-05-03 21:48 | 42.42966 | 4.65668 | 40047 ft | 456 kts | 161° |
| 2026-05-03 21:49 | 42.37121 | 4.69066 | 40055 ft | 457 kts | 161° |
| 2026-05-03 21:49 | 42.31264 | 4.72463 | 40055 ft | 457 kts | 161° |
| 2026-05-03 21:50 | 42.25422 | 4.75844 | 40038 ft | 457 kts | 161° |
| 2026-05-03 21:50 | 42.19568 | 4.79225 | 40039 ft | 456 kts | 161° |
| 2026-05-03 21:51 | 42.13732 | 4.82589 | 40035 ft | 456 kts | 161° |
| 2026-05-03 21:51 | 42.07893 | 4.85949 | 40033 ft | 456 kts | 162° |
| 2026-05-03 21:52 | 42.02074 | 4.89289 | 40041 ft | 458 kts | 162° |
| 2026-05-03 21:52 | 41.96199 | 4.92655 | 40050 ft | 460 kts | 162° |
| 2026-05-03 21:53 | 41.90360 | 4.95994 | 40036 ft | 460 kts | 161° |
| 2026-05-03 21:53 | 41.84458 | 4.99362 | 40037 ft | 461 kts | 162° |
| 2026-05-03 21:54 | 41.78460 | 5.02320 | 40059 ft | 457 kts | 168° |
| 2026-05-03 21:54 | 41.72345 | 5.04799 | 40050 ft | 458 kts | 168° |
| 2026-05-03 21:55 | 41.66271 | 5.07204 | 40029 ft | 457 kts | 168° |
| 2026-05-03 21:55 | 41.60169 | 5.09631 | 40039 ft | 457 kts | 168° |
| 2026-05-03 21:56 | 41.54071 | 5.12052 | 40039 ft | 457 kts | 168° |
| 2026-05-03 21:56 | 41.47968 | 5.14466 | 40040 ft | 458 kts | 168° |
| 2026-05-03 21:57 | 41.41893 | 5.16868 | 40054 ft | 458 kts | 168° |
| 2026-05-03 21:57 | 41.35762 | 5.19284 | 40055 ft | 460 kts | 168° |
| 2026-05-03 21:58 | 41.29613 | 5.21706 | 40057 ft | 461 kts | 168° |
| 2026-05-03 21:58 | 41.23463 | 5.24121 | 40061 ft | 460 kts | 168° |
| 2026-05-03 21:59 | 41.17305 | 5.26534 | 40040 ft | 463 kts | 168° |
| 2026-05-03 21:59 | 41.11110 | 5.28959 | 40043 ft | 464 kts | 168° |
| 2026-05-03 22:00 | 41.04955 | 5.31362 | 40042 ft | 464 kts | 168° |
| 2026-05-03 22:00 | 40.98759 | 5.33777 | 40040 ft | 464 kts | 169° |
| 2026-05-03 22:01 | 40.92544 | 5.36192 | 40051 ft | 467 kts | 168° |
| 2026-05-03 22:01 | 40.86300 | 5.38619 | 40055 ft | 467 kts | 169° |
| 2026-05-03 22:02 | 40.80049 | 5.41040 | 40056 ft | 467 kts | 169° |
| 2026-05-03 22:02 | 40.73803 | 5.43455 | 40044 ft | 469 kts | 169° |
| 2026-05-03 22:03 | 40.67560 | 5.45863 | 40048 ft | 470 kts | 169° |
| 2026-05-03 22:03 | 40.61277 | 5.48285 | 40048 ft | 469 kts | 169° |
| 2026-05-03 22:04 | 40.55011 | 5.50692 | 40053 ft | 468 kts | 169° |
| 2026-05-03 22:04 | 40.48758 | 5.53092 | 40048 ft | 468 kts | 169° |
| 2026-05-03 22:05 | 40.42513 | 5.55483 | 40042 ft | 467 kts | 169° |
| 2026-05-03 22:05 | 40.36274 | 5.57867 | 40046 ft | 468 kts | 169° |
| 2026-05-03 22:06 | 40.30009 | 5.60257 | 40048 ft | 470 kts | 169° |
| 2026-05-03 22:06 | 40.23747 | 5.62640 | 40057 ft | 472 kts | 169° |
| 2026-05-03 22:07 | 40.17430 | 5.65041 | 40060 ft | 472 kts | 169° |
| 2026-05-03 22:07 | 40.11121 | 5.67434 | 40044 ft | 472 kts | 170° |
| 2026-05-03 22:08 | 40.04796 | 5.69826 | 40053 ft | 475 kts | 170° |
| 2026-05-03 22:08 | 39.98437 | 5.72230 | 40053 ft | 475 kts | 169° |
| 2026-05-03 22:09 | 39.92065 | 5.74632 | 40058 ft | 476 kts | 169° |
| 2026-05-03 22:10 | 39.82542 | 5.78213 | 40055 ft | 478 kts | 170° |
| 2026-05-03 22:10 | 39.76135 | 5.80618 | 40061 ft | 479 kts | 170° |
| 2026-05-03 22:11 | 39.69728 | 5.83017 | 40066 ft | 479 kts | 170° |
| 2026-05-03 22:11 | 39.63330 | 5.85408 | 40056 ft | 479 kts | 170° |
| 2026-05-03 22:12 | 39.56892 | 5.87809 | 40064 ft | 483 kts | 170° |
| 2026-05-03 22:12 | 39.50418 | 5.90220 | 40072 ft | 484 kts | 170° |
| 2026-05-03 22:13 | 39.43946 | 5.92625 | 40071 ft | 484 kts | 170° |
| 2026-05-03 22:13 | 39.37514 | 5.95010 | 40064 ft | 485 kts | 170° |
| 2026-05-03 22:14 | 39.31013 | 5.97417 | 40073 ft | 486 kts | 170° |
| 2026-05-03 22:14 | 39.24505 | 5.99822 | 40072 ft | 485 kts | 170° |
| 2026-05-03 22:15 | 39.19114 | 6.01810 | 40049 ft | 484 kts | 171° |
| 2026-05-03 22:15 | 39.12662 | 6.04186 | 40077 ft | 481 kts | 171° |
| 2026-05-03 22:16 | 39.06231 | 6.06547 | 40072 ft | 480 kts | 171° |
| 2026-05-03 22:16 | 38.99792 | 6.08853 | 40066 ft | 476 kts | 178° |
| 2026-05-03 22:17 | 38.93281 | 6.10160 | 40079 ft | 476 kts | 177° |
| 2026-05-03 22:17 | 38.86717 | 6.11484 | 40090 ft | 479 kts | 178° |
| 2026-05-03 22:18 | 38.80151 | 6.12774 | 40093 ft | 481 kts | 177° |
| 2026-05-03 22:18 | 38.73527 | 6.14096 | 40087 ft | 481 kts | 177° |
| 2026-05-03 22:19 | 38.66916 | 6.15397 | 40082 ft | 480 kts | 178° |
| 2026-05-03 22:19 | 38.60309 | 6.16704 | 40082 ft | 480 kts | 178° |
| 2026-05-03 22:20 | 38.53693 | 6.18006 | 40079 ft | 480 kts | 178° |
| 2026-05-03 22:20 | 38.47138 | 6.19295 | 40070 ft | 479 kts | 177° |
| 2026-05-03 22:21 | 38.40563 | 6.20585 | 40080 ft | 481 kts | 177° |
| 2026-05-03 22:21 | 38.33915 | 6.21887 | 40088 ft | 483 kts | 177° |
| 2026-05-03 22:22 | 38.27262 | 6.23189 | 40090 ft | 482 kts | 177° |
| 2026-05-03 22:22 | 38.20670 | 6.24475 | 40083 ft | 481 kts | 177° |
| 2026-05-03 22:23 | 38.14064 | 6.25762 | 40076 ft | 480 kts | 177° |
| 2026-05-03 22:23 | 38.07463 | 6.27046 | 40073 ft | 479 kts | 178° |
| 2026-05-03 22:24 | 38.00856 | 6.28328 | 40066 ft | 479 kts | 178° |
| 2026-05-03 22:24 | 37.94249 | 6.29607 | 40087 ft | 482 kts | 178° |
| 2026-05-03 22:25 | 37.87609 | 6.30892 | 40077 ft | 483 kts | 178° |
| 2026-05-03 22:25 | 37.81004 | 6.32167 | 40078 ft | 483 kts | 178° |
| 2026-05-03 22:26 | 37.74356 | 6.33449 | 40066 ft | 483 kts | 178° |
| 2026-05-03 22:26 | 37.67718 | 6.34725 | 40064 ft | 482 kts | 178° |
| 2026-05-03 22:27 | 37.61064 | 6.36003 | 40056 ft | 482 kts | 178° |
| 2026-05-03 22:27 | 37.54430 | 6.37274 | 40041 ft | 482 kts | 178° |
| 2026-05-03 22:28 | 37.47819 | 6.38539 | 40051 ft | 480 kts | 178° |
| 2026-05-03 22:28 | 37.41227 | 6.39797 | 40047 ft | 479 kts | 178° |
| 2026-05-03 22:29 | 37.34683 | 6.41045 | 40047 ft | 479 kts | 178° |
| 2026-05-03 22:29 | 37.28075 | 6.42302 | 40057 ft | 480 kts | 178° |
| 2026-05-03 22:30 | 37.21480 | 6.43556 | 40058 ft | 479 kts | 178° |
| 2026-05-03 22:30 | 37.14890 | 6.44804 | 40061 ft | 479 kts | 178° |
| 2026-05-03 22:31 | 37.08298 | 6.46053 | 40061 ft | 479 kts | 178° |
| 2026-05-03 22:31 | 37.01720 | 6.47296 | 40060 ft | 478 kts | 178° |
| 2026-05-03 22:32 | 36.95133 | 6.48537 | 40070 ft | 479 kts | 178° |
| 2026-05-03 22:32 | 36.88521 | 6.49783 | 40069 ft | 481 kts | 178° |
| 2026-05-03 22:33 | 36.81950 | 6.51018 | 40084 ft | 480 kts | 178° |
| 2026-05-03 22:33 | 36.75342 | 6.52258 | 40087 ft | 479 kts | 179° |
| 2026-05-03 22:34 | 36.68747 | 6.53493 | 40084 ft | 478 kts | 179° |
| 2026-05-03 22:34 | 36.62169 | 6.54723 | 40099 ft | 478 kts | 179° |
| 2026-05-03 22:35 | 36.55567 | 6.55954 | 40096 ft | 480 kts | 179° |
| 2026-05-03 22:35 | 36.48963 | 6.57185 | 40140 ft | 480 kts | 179° |
| 2026-05-03 22:36 | 36.42373 | 6.58410 | 40166 ft | 482 kts | 179° |
| 2026-05-03 22:36 | 36.35734 | 6.59645 | 40162 ft | 481 kts | 179° |
| 2026-05-03 22:37 | 36.29121 | 6.60884 | 40157 ft | 481 kts | 175° |
| 2026-05-03 22:37 | 36.22525 | 6.62582 | 40164 ft | 485 kts | 176° |
| 2026-05-03 22:38 | 36.15902 | 6.64261 | 40165 ft | 486 kts | 175° |
| 2026-05-03 22:38 | 36.09272 | 6.65964 | 40156 ft | 486 kts | 176° |
| 2026-05-03 22:39 | 36.02656 | 6.67644 | 40146 ft | 485 kts | 176° |
| 2026-05-03 22:39 | 35.96084 | 6.69318 | 40144 ft | 485 kts | 176° |
| 2026-05-03 22:40 | 35.89467 | 6.70997 | 40141 ft | 485 kts | 176° |
| 2026-05-03 22:40 | 35.82847 | 6.72676 | 40141 ft | 486 kts | 176° |
| 2026-05-03 22:41 | 35.76225 | 6.74352 | 40147 ft | 485 kts | 176° |
| 2026-05-03 22:41 | 35.69609 | 6.76023 | 40146 ft | 485 kts | 176° |
| 2026-05-03 22:42 | 35.62983 | 6.77695 | 40153 ft | 485 kts | 176° |
| 2026-05-03 22:42 | 35.56407 | 6.79350 | 40149 ft | 485 kts | 176° |
| 2026-05-03 22:43 | 35.49805 | 6.81011 | 40158 ft | 484 kts | 176° |
| 2026-05-03 22:43 | 35.43205 | 6.82666 | 40167 ft | 484 kts | 176° |
| 2026-05-03 22:44 | 35.36603 | 6.84320 | 40156 ft | 484 kts | 176° |
| 2026-05-03 22:44 | 35.29982 | 6.85974 | 40163 ft | 487 kts | 175° |
| 2026-05-03 22:45 | 35.23384 | 6.87625 | 40184 ft | 487 kts | 175° |
| 2026-05-03 22:45 | 35.16744 | 6.89278 | 40182 ft | 487 kts | 175° |
| 2026-05-03 22:46 | 35.10098 | 6.90933 | 40188 ft | 487 kts | 175° |
| 2026-05-03 22:46 | 35.03445 | 6.92585 | 40183 ft | 487 kts | 175° |
| 2026-05-03 22:47 | 34.96799 | 6.94235 | 40186 ft | 486 kts | 175° |
| 2026-05-03 22:47 | 34.90184 | 6.95872 | 40153 ft | 484 kts | 175° |
| 2026-05-03 22:48 | 34.83628 | 6.97493 | 40157 ft | 484 kts | 175° |
| 2026-05-03 22:48 | 34.77021 | 6.99130 | 40159 ft | 485 kts | 175° |
| 2026-05-03 22:49 | 34.70386 | 7.00830 | 40160 ft | 488 kts | 175° |
| 2026-05-03 22:49 | 34.63731 | 7.02503 | 40167 ft | 488 kts | 175° |
| 2026-05-03 22:50 | 34.57086 | 7.04186 | 40157 ft | 487 kts | 175° |
| 2026-05-03 22:50 | 34.50459 | 7.05853 | 40139 ft | 486 kts | 175° |
| 2026-05-03 22:51 | 34.43829 | 7.07521 | 40134 ft | 486 kts | 175° |
| 2026-05-03 22:51 | 34.37199 | 7.09186 | 40124 ft | 486 kts | 175° |
| 2026-05-03 22:52 | 34.30611 | 7.10838 | 40125 ft | 486 kts | 175° |
| 2026-05-03 22:52 | 34.23980 | 7.12499 | 40135 ft | 486 kts | 175° |
| 2026-05-03 22:53 | 34.17335 | 7.14159 | 40138 ft | 488 kts | 175° |
| 2026-05-03 22:53 | 34.10668 | 7.15823 | 40140 ft | 490 kts | 175° |
| 2026-05-03 22:54 | 34.03999 | 7.17486 | 40138 ft | 488 kts | 175° |
| 2026-05-03 22:54 | 33.97354 | 7.19138 | 40127 ft | 486 kts | 175° |
| 2026-05-03 22:55 | 33.90729 | 7.20784 | 40127 ft | 485 kts | 175° |
| 2026-05-03 22:55 | 33.84137 | 7.22417 | 40122 ft | 487 kts | 175° |
| 2026-05-03 22:56 | 33.77480 | 7.24066 | 40133 ft | 488 kts | 175° |
| 2026-05-03 22:56 | 33.70820 | 7.25712 | 40134 ft | 489 kts | 175° |
| 2026-05-03 22:57 | 33.64164 | 7.27355 | 40139 ft | 490 kts | 175° |
| 2026-05-03 22:57 | 33.57481 | 7.29002 | 40138 ft | 489 kts | 175° |
| 2026-05-03 22:58 | 33.50822 | 7.30639 | 40133 ft | 487 kts | 175° |
| 2026-05-03 22:58 | 33.44180 | 7.32272 | 40134 ft | 486 kts | 175° |
| 2026-05-03 22:59 | 33.37581 | 7.33888 | 40129 ft | 488 kts | 175° |
| 2026-05-03 22:59 | 33.30907 | 7.35523 | 40139 ft | 491 kts | 175° |
| 2026-05-03 23:00 | 33.24213 | 7.37161 | 40133 ft | 490 kts | 175° |
| 2026-05-03 23:00 | 33.17547 | 7.38787 | 40130 ft | 488 kts | 175° |
| 2026-05-03 23:01 | 33.10893 | 7.40409 | 40125 ft | 488 kts | 175° |
| 2026-05-03 23:01 | 33.04234 | 7.42029 | 40123 ft | 487 kts | 175° |
| 2026-05-03 23:02 | 32.97592 | 7.43643 | 40124 ft | 487 kts | 175° |
| 2026-05-03 23:02 | 32.90951 | 7.45254 | 40131 ft | 486 kts | 175° |
| 2026-05-03 23:03 | 32.84340 | 7.46854 | 40134 ft | 489 kts | 175° |
| 2026-05-03 23:03 | 32.77652 | 7.48472 | 40140 ft | 491 kts | 175° |
| 2026-05-03 23:04 | 32.72085 | 7.49818 | 40137 ft | 490 kts | 175° |
| 2026-05-03 23:04 | 32.65397 | 7.51430 | 40110 ft | 489 kts | 175° |
| 2026-05-03 23:05 | 32.58738 | 7.53034 | 40112 ft | 488 kts | 175° |
| 2026-05-03 23:05 | 32.52093 | 7.54632 | 40110 ft | 487 kts | 175° |
| 2026-05-03 23:06 | 32.45447 | 7.56227 | 40124 ft | 488 kts | 175° |
| 2026-05-03 23:06 | 32.38775 | 7.57826 | 40111 ft | 489 kts | 175° |
| 2026-05-03 23:07 | 32.32100 | 7.59424 | 40128 ft | 490 kts | 175° |
| 2026-05-03 23:07 | 32.25400 | 7.61025 | 40131 ft | 492 kts | 175° |
| 2026-05-03 23:08 | 32.18720 | 7.62620 | 40129 ft | 492 kts | 175° |
| 2026-05-03 23:08 | 32.12014 | 7.64218 | 40130 ft | 491 kts | 175° |
| 2026-05-03 23:09 | 32.05333 | 7.65807 | 40115 ft | 489 kts | 174° |
| 2026-05-03 23:09 | 31.98656 | 7.67393 | 40115 ft | 489 kts | 174° |
| 2026-05-03 23:10 | 31.91987 | 7.68974 | 40112 ft | 489 kts | 174° |
| 2026-05-03 23:10 | 31.85302 | 7.70558 | 40116 ft | 490 kts | 174° |
| 2026-05-03 23:11 | 31.78639 | 7.72134 | 40112 ft | 491 kts | 174° |
| 2026-05-03 23:11 | 31.71931 | 7.73731 | 40115 ft | 493 kts | 174° |
| 2026-05-03 23:12 | 31.65221 | 7.75372 | 40113 ft | 492 kts | 174° |
| 2026-05-03 23:12 | 31.58531 | 7.76978 | 40108 ft | 490 kts | 174° |
| 2026-05-03 23:13 | 31.51868 | 7.78590 | 40111 ft | 489 kts | 174° |
| 2026-05-03 23:13 | 31.45190 | 7.80194 | 40117 ft | 491 kts | 174° |
| 2026-05-03 23:14 | 31.38473 | 7.81811 | 40119 ft | 493 kts | 174° |
| 2026-05-03 23:14 | 31.31799 | 7.83413 | 40109 ft | 492 kts | 174° |
| 2026-05-03 23:15 | 31.25105 | 7.85018 | 40097 ft | 490 kts | 174° |
| 2026-05-03 23:15 | 31.18431 | 7.86615 | 40097 ft | 490 kts | 174° |
| 2026-05-03 23:16 | 31.11749 | 7.88212 | 40091 ft | 490 kts | 174° |
| 2026-05-03 23:16 | 31.05059 | 7.89809 | 40091 ft | 490 kts | 174° |
| 2026-05-03 23:17 | 30.98402 | 7.91396 | 40088 ft | 490 kts | 174° |
| 2026-05-03 23:17 | 30.91714 | 7.92988 | 40091 ft | 491 kts | 174° |
| 2026-05-03 23:18 | 30.85003 | 7.94583 | 40094 ft | 492 kts | 174° |
| 2026-05-03 23:18 | 30.78290 | 7.96176 | 40098 ft | 493 kts | 174° |
| 2026-05-03 23:19 | 30.71557 | 7.97772 | 40093 ft | 494 kts | 174° |
| 2026-05-03 23:19 | 30.64862 | 7.99357 | 40078 ft | 494 kts | 174° |
| 2026-05-03 23:20 | 30.58128 | 8.00948 | 40076 ft | 494 kts | 174° |
| 2026-05-03 23:20 | 30.51395 | 8.02537 | 40077 ft | 493 kts | 174° |
| 2026-05-03 23:21 | 30.44674 | 8.04121 | 40075 ft | 492 kts | 174° |
| 2026-05-03 23:21 | 30.37960 | 8.05701 | 40075 ft | 492 kts | 174° |
| 2026-05-03 23:22 | 30.27902 | 8.08064 | 40073 ft | 491 kts | 174° |
| 2026-05-03 23:22 | 30.21253 | 8.09623 | 40068 ft | 490 kts | 174° |
| 2026-05-03 23:23 | 30.14559 | 8.11191 | 40050 ft | 491 kts | 174° |
| 2026-05-03 23:23 | 30.07853 | 8.12758 | 40077 ft | 493 kts | 174° |
| 2026-05-03 23:24 | 30.01131 | 8.14344 | 40075 ft | 496 kts | 174° |
| 2026-05-03 23:24 | 29.94373 | 8.15962 | 40075 ft | 495 kts | 174° |
| 2026-05-03 23:25 | 29.87635 | 8.17554 | 40079 ft | 494 kts | 174° |
| 2026-05-03 23:25 | 29.80900 | 8.19154 | 40073 ft | 494 kts | 174° |
| 2026-05-03 23:26 | 29.74171 | 8.20744 | 40065 ft | 494 kts | 174° |
| 2026-05-03 23:26 | 29.67434 | 8.22337 | 40068 ft | 495 kts | 174° |
| 2026-05-03 23:27 | 29.60724 | 8.23920 | 40072 ft | 495 kts | 174° |
| 2026-05-03 23:27 | 29.53978 | 8.25511 | 40066 ft | 494 kts | 174° |
| 2026-05-03 23:28 | 29.47230 | 8.27099 | 40065 ft | 495 kts | 174° |
| 2026-05-03 23:28 | 29.40477 | 8.28686 | 40063 ft | 495 kts | 174° |
| 2026-05-03 23:29 | 29.33729 | 8.30270 | 40063 ft | 495 kts | 174° |
| 2026-05-03 23:29 | 29.27024 | 8.31842 | 40035 ft | 495 kts | 174° |
| 2026-05-03 23:30 | 29.20279 | 8.33421 | 40060 ft | 495 kts | 174° |
| 2026-05-03 23:30 | 29.13511 | 8.35003 | 40081 ft | 496 kts | 174° |
| 2026-05-03 23:31 | 29.06736 | 8.36585 | 40073 ft | 496 kts | 174° |
| 2026-05-03 23:31 | 28.99968 | 8.38164 | 40067 ft | 495 kts | 174° |
| 2026-05-03 23:32 | 28.93257 | 8.39726 | 40065 ft | 494 kts | 174° |
| 2026-05-03 23:32 | 28.86516 | 8.41293 | 40056 ft | 494 kts | 174° |
| 2026-05-03 23:33 | 28.79783 | 8.42857 | 40055 ft | 494 kts | 174° |
| 2026-05-03 23:33 | 28.73048 | 8.44419 | 40053 ft | 493 kts | 174° |
| 2026-05-03 23:34 | 28.66320 | 8.45977 | 40065 ft | 493 kts | 175° |
| 2026-05-03 23:34 | 28.59579 | 8.47536 | 40065 ft | 496 kts | 175° |
| 2026-05-03 23:35 | 28.52820 | 8.49098 | 40069 ft | 498 kts | 175° |
| 2026-05-03 23:35 | 28.46029 | 8.50666 | 40069 ft | 497 kts | 175° |
| 2026-05-03 23:36 | 28.39262 | 8.52224 | 40037 ft | 496 kts | 175° |
| 2026-05-03 23:36 | 28.32518 | 8.53776 | 40047 ft | 493 kts | 175° |
| 2026-05-03 23:37 | 28.25812 | 8.55317 | 40046 ft | 494 kts | 175° |
| 2026-05-03 23:37 | 28.19068 | 8.56864 | 40051 ft | 495 kts | 175° |
| 2026-05-03 23:38 | 28.12296 | 8.58417 | 40058 ft | 497 kts | 175° |
| 2026-05-03 23:38 | 28.05509 | 8.59978 | 40044 ft | 497 kts | 175° |
| 2026-05-03 23:39 | 27.98745 | 8.61553 | 40033 ft | 495 kts | 175° |
| 2026-05-03 23:39 | 27.91997 | 8.63109 | 40030 ft | 494 kts | 175° |
| 2026-05-03 23:40 | 27.85308 | 8.64657 | 40031 ft | 493 kts | 175° |
| 2026-05-03 23:40 | 27.78580 | 8.66208 | 40017 ft | 494 kts | 175° |
| 2026-05-03 23:41 | 27.71836 | 8.67763 | 40043 ft | 496 kts | 175° |
| 2026-05-03 23:41 | 27.65049 | 8.69326 | 40043 ft | 498 kts | 175° |
| 2026-05-03 23:42 | 27.58271 | 8.70885 | 40039 ft | 497 kts | 175° |
| 2026-05-03 23:42 | 27.51503 | 8.72438 | 40031 ft | 496 kts | 175° |
| 2026-05-03 23:43 | 27.44747 | 8.73987 | 40029 ft | 496 kts | 175° |
| 2026-05-03 23:43 | 27.38015 | 8.75529 | 40028 ft | 496 kts | 175° |
| 2026-05-03 23:44 | 27.31249 | 8.77077 | 40020 ft | 496 kts | 175° |
| 2026-05-03 23:44 | 27.24482 | 8.78623 | 40019 ft | 496 kts | 175° |
| 2026-05-03 23:45 | 27.17719 | 8.80166 | 40034 ft | 495 kts | 175° |
| 2026-05-03 23:45 | 27.10980 | 8.81703 | 40032 ft | 493 kts | 175° |
| 2026-05-03 23:46 | 27.04250 | 8.83234 | 40020 ft | 493 kts | 175° |
| 2026-05-03 23:46 | 26.97514 | 8.84765 | 40024 ft | 495 kts | 175° |
| 2026-05-03 23:47 | 26.90798 | 8.86310 | 40041 ft | 496 kts | 175° |
| 2026-05-03 23:47 | 26.84036 | 8.87858 | 40030 ft | 494 kts | 175° |
| 2026-05-03 23:48 | 26.77311 | 8.89396 | 40027 ft | 492 kts | 175° |
| 2026-05-03 23:48 | 26.70589 | 8.90931 | 40008 ft | 492 kts | 175° |
| 2026-05-03 23:49 | 26.63917 | 8.92453 | 40007 ft | 493 kts | 175° |
| 2026-05-03 23:49 | 26.57194 | 8.93985 | 40002 ft | 493 kts | 175° |
| 2026-05-03 23:50 | 26.51562 | 8.95267 | 40018 ft | 493 kts | 175° |
| 2026-05-03 23:50 | 26.43754 | 8.97042 | 40022 ft | 493 kts | 175° |
| 2026-05-03 23:51 | 26.37021 | 8.98571 | 40023 ft | 493 kts | 175° |
| 2026-05-03 23:51 | 26.30287 | 9.00098 | 40029 ft | 493 kts | 175° |
| 2026-05-03 23:52 | 26.23565 | 9.01621 | 40021 ft | 492 kts | 176° |
| 2026-05-03 23:52 | 26.16852 | 9.03139 | 40024 ft | 492 kts | 175° |
| 2026-05-03 23:53 | 26.10171 | 9.04649 | 40023 ft | 493 kts | 175° |
| 2026-05-03 23:53 | 26.03450 | 9.06166 | 40029 ft | 493 kts | 175° |
| 2026-05-03 23:54 | 25.97850 | 9.07429 | 40028 ft | 494 kts | 175° |
| 2026-05-03 23:54 | 25.91117 | 9.08965 | 40021 ft | 494 kts | 176° |
| 2026-05-03 23:55 | 25.84365 | 9.10495 | 40035 ft | 494 kts | 176° |
| 2026-05-03 23:55 | 25.77619 | 9.12026 | 40039 ft | 494 kts | 176° |
| 2026-05-03 23:56 | 25.70883 | 9.13550 | 40037 ft | 494 kts | 176° |
| 2026-05-03 23:56 | 25.64189 | 9.15065 | 40035 ft | 493 kts | 176° |
| 2026-05-03 23:57 | 25.57458 | 9.16586 | 40031 ft | 493 kts | 176° |
| 2026-05-03 23:57 | 25.50735 | 9.18103 | 40024 ft | 492 kts | 176° |
| 2026-05-03 23:58 | 25.44022 | 9.19616 | 40025 ft | 492 kts | 176° |
| 2026-05-03 23:58 | 25.37355 | 9.21117 | 40027 ft | 492 kts | 176° |
| 2026-05-03 23:59 | 25.30651 | 9.22626 | 40042 ft | 491 kts | 176° |
| 2026-05-03 23:59 | 25.23947 | 9.24131 | 40046 ft | 491 kts | 176° |
| 2026-05-04 00:00 | 25.17232 | 9.25638 | 40047 ft | 492 kts | 176° |
| 2026-05-04 00:00 | 25.10512 | 9.27145 | 40050 ft | 492 kts | 176° |
| 2026-05-04 00:01 | 25.03803 | 9.28647 | 40038 ft | 492 kts | 176° |
| 2026-05-04 00:01 | 24.97121 | 9.30141 | 40029 ft | 493 kts | 176° |
| 2026-05-04 00:02 | 24.90388 | 9.31645 | 40036 ft | 493 kts | 176° |
| 2026-05-04 00:02 | 24.83648 | 9.33149 | 40024 ft | 494 kts | 176° |
| 2026-05-04 00:03 | 24.76888 | 9.34656 | 40026 ft | 495 kts | 176° |
| 2026-05-04 00:03 | 24.70136 | 9.36161 | 40001 ft | 494 kts | 176° |
| 2026-05-04 00:04 | 24.63455 | 9.37647 | 40005 ft | 491 kts | 176° |
| 2026-05-04 00:04 | 24.56762 | 9.39133 | 40033 ft | 490 kts | 176° |
| 2026-05-04 00:05 | 24.50055 | 9.40621 | 40051 ft | 491 kts | 176° |
| 2026-05-04 00:05 | 24.43337 | 9.42111 | 40062 ft | 492 kts | 176° |
| 2026-05-04 00:06 | 24.36665 | 9.43588 | 40076 ft | 492 kts | 176° |
| 2026-05-04 00:06 | 24.29954 | 9.45209 | 40093 ft | 499 kts | 167° |
| 2026-05-04 00:07 | 24.26719 | 9.46687 | 40092 ft | 509 kts | 156° |
| 2026-05-04 00:07 | 24.23636 | 9.48619 | 40082 ft | 512 kts | 156° |
| 2026-05-04 00:07 | 24.17489 | 9.52576 | 40073 ft | 512 kts | 156° |
| 2026-05-04 00:08 | 24.11342 | 9.56507 | 40053 ft | 511 kts | 156° |
| 2026-05-04 00:08 | 24.05210 | 9.60431 | 40022 ft | 510 kts | 156° |
| 2026-05-04 00:09 | 23.99091 | 9.64341 | 39993 ft | 508 kts | 156° |
| 2026-05-04 00:09 | 23.92984 | 9.68236 | 39986 ft | 508 kts | 156° |
| 2026-05-04 00:10 | 23.86906 | 9.72114 | 39996 ft | 508 kts | 156° |
| 2026-05-04 00:10 | 23.80784 | 9.76011 | 39986 ft | 508 kts | 156° |
| 2026-05-04 00:11 | 23.74676 | 9.79898 | 39971 ft | 508 kts | 156° |
| 2026-05-04 00:11 | 23.68560 | 9.83783 | 39978 ft | 508 kts | 156° |
| 2026-05-04 00:12 | 23.62454 | 9.87660 | 39984 ft | 507 kts | 156° |
| 2026-05-04 00:12 | 23.56389 | 9.91505 | 39978 ft | 507 kts | 156° |
| 2026-05-04 00:13 | 23.50278 | 9.95375 | 39991 ft | 508 kts | 156° |
| 2026-05-04 00:13 | 23.44160 | 9.99246 | 39996 ft | 509 kts | 156° |
| 2026-05-04 00:14 | 23.38067 | 10.03098 | 39982 ft | 509 kts | 156° |
| 2026-05-04 00:14 | 23.31937 | 10.06968 | 39986 ft | 509 kts | 156° |
| 2026-05-04 00:15 | 23.25811 | 10.10831 | 39986 ft | 509 kts | 156° |
| 2026-05-04 00:15 | 23.19684 | 10.14691 | 39986 ft | 509 kts | 156° |
| 2026-05-04 00:16 | 23.13555 | 10.18548 | 39986 ft | 509 kts | 156° |
| 2026-05-04 00:16 | 23.07416 | 10.22407 | 39977 ft | 508 kts | 157° |
| 2026-05-04 00:17 | 23.01295 | 10.26251 | 39970 ft | 508 kts | 157° |
| 2026-05-04 00:17 | 22.95215 | 10.30065 | 39969 ft | 508 kts | 157° |
| 2026-05-04 00:18 | 22.89098 | 10.33898 | 39965 ft | 507 kts | 157° |
| 2026-05-04 00:18 | 22.82972 | 10.37733 | 39963 ft | 507 kts | 157° |
| 2026-05-04 00:19 | 22.76893 | 10.41534 | 39964 ft | 506 kts | 157° |
| 2026-05-04 00:19 | 22.70804 | 10.45338 | 39965 ft | 505 kts | 157° |
| 2026-05-04 00:20 | 22.64695 | 10.49149 | 39968 ft | 506 kts | 157° |
| 2026-05-04 00:20 | 22.58677 | 10.53152 | 39971 ft | 509 kts | 155° |
| 2026-05-04 00:21 | 22.52661 | 10.57141 | 39973 ft | 510 kts | 155° |
| 2026-05-04 00:21 | 22.46649 | 10.61198 | 39966 ft | 507 kts | 155° |
| 2026-05-04 00:22 | 22.40659 | 10.65189 | 39962 ft | 504 kts | 156° |
| 2026-05-04 00:22 | 22.34700 | 10.69181 | 39951 ft | 503 kts | 156° |
| 2026-05-04 00:23 | 22.28740 | 10.73157 | 39952 ft | 503 kts | 156° |
| 2026-05-04 00:23 | 22.22773 | 10.77140 | 39949 ft | 504 kts | 156° |
| 2026-05-04 00:24 | 22.16839 | 10.81094 | 39953 ft | 504 kts | 156° |
| 2026-05-04 00:24 | 22.10859 | 10.85075 | 39956 ft | 505 kts | 156° |
| 2026-05-04 00:25 | 22.04879 | 10.89054 | 39939 ft | 504 kts | 156° |
| 2026-05-04 00:25 | 21.98925 | 10.93009 | 39935 ft | 502 kts | 156° |
| 2026-05-04 00:26 | 21.92979 | 10.96957 | 39928 ft | 501 kts | 156° |
| 2026-05-04 00:26 | 21.87033 | 11.00898 | 39928 ft | 502 kts | 156° |
| 2026-05-04 00:27 | 21.81113 | 11.04821 | 39924 ft | 504 kts | 156° |
| 2026-05-04 00:27 | 21.75134 | 11.08778 | 39906 ft | 505 kts | 156° |
| 2026-05-04 00:28 | 21.69170 | 11.12724 | 39921 ft | 501 kts | 156° |
| 2026-05-04 00:28 | 21.63236 | 11.16640 | 39911 ft | 499 kts | 156° |
| 2026-05-04 00:29 | 21.57316 | 11.20548 | 39925 ft | 500 kts | 156° |
| 2026-05-04 00:29 | 21.51381 | 11.24460 | 39920 ft | 500 kts | 156° |
| 2026-05-04 00:30 | 21.45481 | 11.28346 | 39926 ft | 501 kts | 156° |
| 2026-05-04 00:30 | 21.39520 | 11.32268 | 39903 ft | 501 kts | 156° |
| 2026-05-04 00:31 | 21.33569 | 11.36180 | 39897 ft | 501 kts | 156° |
| 2026-05-04 00:31 | 21.27629 | 11.40081 | 39900 ft | 500 kts | 156° |
| 2026-05-04 00:32 | 21.21691 | 11.43977 | 39903 ft | 500 kts | 156° |
| 2026-05-04 00:32 | 21.15762 | 11.47863 | 39897 ft | 499 kts | 156° |
| 2026-05-04 00:33 | 21.06909 | 11.53660 | 39889 ft | 498 kts | 156° |
| 2026-05-04 00:34 | 21.00994 | 11.57529 | 39896 ft | 498 kts | 156° |
| 2026-05-04 00:34 | 20.95066 | 11.61402 | 39891 ft | 499 kts | 156° |
| 2026-05-04 00:35 | 20.89124 | 11.65282 | 39898 ft | 501 kts | 156° |
| 2026-05-04 00:35 | 20.83155 | 11.69174 | 39901 ft | 502 kts | 156° |
| 2026-05-04 00:36 | 20.77193 | 11.73060 | 39895 ft | 502 kts | 156° |
| 2026-05-04 00:36 | 20.71282 | 11.76908 | 39892 ft | 499 kts | 156° |
| 2026-05-04 00:37 | 20.65364 | 11.80758 | 39886 ft | 497 kts | 156° |
| 2026-05-04 00:37 | 20.59442 | 11.84604 | 39884 ft | 498 kts | 156° |
| 2026-05-04 00:38 | 20.53503 | 11.88460 | 39886 ft | 499 kts | 156° |
| 2026-05-04 00:38 | 20.47567 | 11.92307 | 39891 ft | 499 kts | 156° |
| 2026-05-04 00:39 | 20.41661 | 11.96133 | 39897 ft | 500 kts | 156° |
| 2026-05-04 00:39 | 20.35713 | 11.99982 | 39883 ft | 499 kts | 156° |
| 2026-05-04 00:40 | 20.29785 | 12.03816 | 39879 ft | 496 kts | 156° |
| 2026-05-04 00:40 | 20.23877 | 12.07630 | 39882 ft | 496 kts | 156° |
| 2026-05-04 00:41 | 20.17971 | 12.11442 | 39882 ft | 496 kts | 156° |
| 2026-05-04 00:41 | 20.12094 | 12.15231 | 39880 ft | 497 kts | 156° |
| 2026-05-04 00:42 | 20.06177 | 12.19042 | 39886 ft | 497 kts | 156° |
| 2026-05-04 00:42 | 20.01255 | 12.22210 | 39877 ft | 497 kts | 156° |
| 2026-05-04 00:43 | 19.94376 | 12.26634 | 39879 ft | 497 kts | 156° |
| 2026-05-04 00:43 | 19.88465 | 12.30431 | 39874 ft | 497 kts | 156° |
| 2026-05-04 00:44 | 19.83506 | 12.33615 | 39881 ft | 497 kts | 156° |
| 2026-05-04 00:44 | 19.77590 | 12.37410 | 39886 ft | 497 kts | 156° |
| 2026-05-04 00:45 | 19.71709 | 12.41179 | 39881 ft | 497 kts | 156° |
| 2026-05-04 00:45 | 19.65780 | 12.44974 | 39885 ft | 498 kts | 156° |
| 2026-05-04 00:46 | 19.59834 | 12.48778 | 39887 ft | 499 kts | 156° |
| 2026-05-04 00:46 | 19.53866 | 12.52593 | 39882 ft | 501 kts | 156° |
| 2026-05-04 00:47 | 19.47910 | 12.56398 | 39887 ft | 499 kts | 156° |
| 2026-05-04 00:47 | 19.41966 | 12.60190 | 39882 ft | 498 kts | 156° |
| 2026-05-04 00:48 | 19.36071 | 12.63948 | 39883 ft | 496 kts | 156° |
| 2026-05-04 00:48 | 19.30144 | 12.67723 | 39868 ft | 497 kts | 156° |
| 2026-05-04 00:49 | 19.24212 | 12.71498 | 39871 ft | 498 kts | 156° |
| 2026-05-04 00:49 | 19.18256 | 12.75285 | 39875 ft | 500 kts | 156° |
| 2026-05-04 00:50 | 19.12284 | 12.79081 | 39883 ft | 499 kts | 156° |
| 2026-05-04 00:50 | 19.06385 | 12.82826 | 39879 ft | 496 kts | 156° |
| 2026-05-04 00:51 | 19.00457 | 12.86584 | 39844 ft | 495 kts | 156° |
| 2026-05-04 00:51 | 18.97421 | 12.88206 | 39906 ft | 484 kts | 166° |
| 2026-05-04 00:51 | 18.94245 | 12.89321 | 39889 ft | 481 kts | 169° |
| 2026-05-04 00:52 | 18.87824 | 12.91430 | 39881 ft | 484 kts | 169° |
| 2026-05-04 00:52 | 18.81377 | 12.93535 | 39883 ft | 484 kts | 169° |
| 2026-05-04 00:53 | 18.74990 | 12.95623 | 39875 ft | 483 kts | 169° |
| 2026-05-04 00:53 | 18.68574 | 12.97717 | 39878 ft | 482 kts | 169° |
| 2026-05-04 00:54 | 18.62168 | 12.99806 | 39863 ft | 481 kts | 169° |
| 2026-05-04 00:54 | 18.55774 | 13.01890 | 39859 ft | 480 kts | 169° |
| 2026-05-04 00:55 | 18.49380 | 13.03971 | 39866 ft | 482 kts | 169° |
| 2026-05-04 00:55 | 18.42964 | 13.06060 | 39869 ft | 482 kts | 169° |
| 2026-05-04 00:56 | 18.36585 | 13.08133 | 39870 ft | 483 kts | 169° |
| 2026-05-04 00:56 | 18.30166 | 13.10219 | 39862 ft | 482 kts | 169° |
| 2026-05-04 00:57 | 18.23741 | 13.12305 | 39859 ft | 482 kts | 169° |
| 2026-05-04 00:57 | 18.17327 | 13.14386 | 39857 ft | 483 kts | 169° |
| 2026-05-04 00:58 | 18.10884 | 13.16473 | 39860 ft | 485 kts | 169° |
| 2026-05-04 00:58 | 18.04425 | 13.18566 | 39867 ft | 486 kts | 169° |
| 2026-05-04 00:59 | 17.98011 | 13.20642 | 39867 ft | 485 kts | 169° |
| 2026-05-04 00:59 | 17.91585 | 13.22721 | 39854 ft | 482 kts | 169° |
| 2026-05-04 01:00 | 17.85177 | 13.24791 | 39859 ft | 481 kts | 169° |
| 2026-05-04 01:00 | 17.78768 | 13.26860 | 39856 ft | 482 kts | 169° |
| 2026-05-04 01:01 | 17.72358 | 13.28928 | 39857 ft | 482 kts | 169° |
| 2026-05-04 01:01 | 17.65938 | 13.30998 | 39858 ft | 482 kts | 169° |
| 2026-05-04 01:02 | 17.59519 | 13.33067 | 39858 ft | 482 kts | 169° |
| 2026-05-04 01:02 | 17.53137 | 13.35121 | 39863 ft | 483 kts | 169° |
| 2026-05-04 01:03 | 17.46699 | 13.37192 | 39866 ft | 483 kts | 169° |
| 2026-05-04 01:03 | 17.40270 | 13.39258 | 39866 ft | 484 kts | 169° |
| 2026-05-04 01:04 | 17.33830 | 13.41327 | 39869 ft | 484 kts | 169° |
| 2026-05-04 01:04 | 17.27384 | 13.43396 | 39857 ft | 484 kts | 168° |
| 2026-05-04 01:05 | 17.21005 | 13.45443 | 39854 ft | 481 kts | 168° |
| 2026-05-04 01:05 | 17.14601 | 13.47494 | 39849 ft | 480 kts | 168° |
| 2026-05-04 01:06 | 17.08215 | 13.49540 | 39851 ft | 480 kts | 168° |
| 2026-05-04 01:06 | 17.01807 | 13.51590 | 39856 ft | 483 kts | 168° |
| 2026-05-04 01:07 | 16.95354 | 13.53655 | 39860 ft | 485 kts | 168° |
| 2026-05-04 01:07 | 16.88900 | 13.55718 | 39852 ft | 485 kts | 168° |
| 2026-05-04 01:08 | 16.82452 | 13.57777 | 39848 ft | 485 kts | 168° |
| 2026-05-04 01:08 | 16.75999 | 13.59836 | 39847 ft | 485 kts | 168° |
| 2026-05-04 01:09 | 16.69587 | 13.61881 | 39842 ft | 485 kts | 168° |
| 2026-05-04 01:09 | 16.63135 | 13.63937 | 39841 ft | 485 kts | 168° |
| 2026-05-04 01:10 | 16.56676 | 13.65994 | 39839 ft | 484 kts | 168° |
| 2026-05-04 01:10 | 16.50225 | 13.68047 | 39837 ft | 484 kts | 168° |
| 2026-05-04 01:11 | 16.43761 | 13.70102 | 39838 ft | 484 kts | 168° |
| 2026-05-04 01:11 | 16.37355 | 13.72138 | 39838 ft | 484 kts | 168° |
| 2026-05-04 01:12 | 16.30900 | 13.74188 | 39835 ft | 484 kts | 168° |
| 2026-05-04 01:12 | 16.24446 | 13.76236 | 39824 ft | 484 kts | 168° |
| 2026-05-04 01:13 | 16.17996 | 13.78281 | 39830 ft | 485 kts | 167° |
| 2026-05-04 01:13 | 16.11529 | 13.80330 | 39831 ft | 486 kts | 167° |
| 2026-05-04 01:14 | 16.05053 | 13.82381 | 39838 ft | 487 kts | 167° |
| 2026-05-04 01:14 | 15.98624 | 13.84416 | 39835 ft | 485 kts | 167° |
| 2026-05-04 01:15 | 15.92167 | 13.86458 | 39833 ft | 484 kts | 167° |
| 2026-05-04 01:15 | 15.85728 | 13.88493 | 39817 ft | 483 kts | 167° |
| 2026-05-04 01:16 | 15.79302 | 13.90522 | 39818 ft | 482 kts | 167° |
| 2026-05-04 01:16 | 15.72869 | 13.92552 | 39819 ft | 483 kts | 167° |
| 2026-05-04 01:17 | 15.66423 | 13.94586 | 39822 ft | 484 kts | 167° |
| 2026-05-04 01:17 | 15.60011 | 13.96606 | 39827 ft | 485 kts | 167° |
| 2026-05-04 01:18 | 15.53542 | 13.98644 | 39830 ft | 485 kts | 167° |
| 2026-05-04 01:18 | 15.47069 | 14.00682 | 39831 ft | 486 kts | 167° |
| 2026-05-04 01:19 | 15.40581 | 14.02723 | 39833 ft | 486 kts | 167° |
| 2026-05-04 01:19 | 15.34109 | 14.04758 | 39831 ft | 485 kts | 167° |
| 2026-05-04 01:20 | 15.27654 | 14.06786 | 39821 ft | 484 kts | 167° |
| 2026-05-04 01:20 | 15.21243 | 14.08799 | 39817 ft | 484 kts | 167° |
| 2026-05-04 01:21 | 15.14804 | 14.10819 | 39818 ft | 482 kts | 167° |
| 2026-05-04 01:21 | 15.08383 | 14.12832 | 39812 ft | 482 kts | 167° |
| 2026-05-04 01:22 | 15.01955 | 14.14846 | 39812 ft | 483 kts | 167° |
| 2026-05-04 01:22 | 14.95501 | 14.16868 | 39818 ft | 485 kts | 167° |
| 2026-05-04 01:23 | 14.89069 | 14.18881 | 39822 ft | 486 kts | 167° |
| 2026-05-04 01:23 | 14.82600 | 14.20904 | 39816 ft | 484 kts | 167° |
| 2026-05-04 01:24 | 14.76153 | 14.22920 | 39803 ft | 482 kts | 167° |
| 2026-05-04 01:24 | 14.69738 | 14.24924 | 39805 ft | 481 kts | 167° |
| 2026-05-04 01:25 | 14.63312 | 14.26930 | 39807 ft | 483 kts | 167° |
| 2026-05-04 01:25 | 14.56918 | 14.28925 | 39814 ft | 484 kts | 167° |
| 2026-05-04 01:26 | 14.50463 | 14.30937 | 39832 ft | 485 kts | 167° |
| 2026-05-04 01:26 | 14.44002 | 14.32951 | 39814 ft | 484 kts | 167° |
| 2026-05-04 01:27 | 14.37549 | 14.34961 | 39813 ft | 483 kts | 167° |
| 2026-05-04 01:27 | 14.31121 | 14.36962 | 39814 ft | 482 kts | 167° |
| 2026-05-04 01:28 | 14.24745 | 14.38945 | 39812 ft | 481 kts | 167° |
| 2026-05-04 01:28 | 14.18318 | 14.40943 | 39814 ft | 483 kts | 167° |
| 2026-05-04 01:29 | 14.11871 | 14.42946 | 39828 ft | 485 kts | 167° |
| 2026-05-04 01:29 | 14.05406 | 14.44954 | 39833 ft | 485 kts | 167° |
| 2026-05-04 01:30 | 14.00040 | 14.46620 | 39838 ft | 484 kts | 167° |
| 2026-05-04 01:30 | 13.93594 | 14.48619 | 39845 ft | 483 kts | 167° |
| 2026-05-04 01:31 | 13.86114 | 14.50938 | 39827 ft | 483 kts | 167° |
| 2026-05-04 01:31 | 13.80717 | 14.52610 | 39824 ft | 482 kts | 167° |
| 2026-05-04 01:32 | 13.74340 | 14.54585 | 39836 ft | 480 kts | 167° |
| 2026-05-04 01:32 | 13.67959 | 14.56559 | 39826 ft | 479 kts | 167° |
| 2026-05-04 01:33 | 13.61569 | 14.58536 | 39825 ft | 479 kts | 167° |
| 2026-05-04 01:33 | 13.55175 | 14.60512 | 39838 ft | 479 kts | 167° |
| 2026-05-04 01:34 | 13.48784 | 14.62487 | 39835 ft | 479 kts | 167° |
| 2026-05-04 01:34 | 13.42397 | 14.64459 | 39824 ft | 479 kts | 167° |
| 2026-05-04 01:35 | 13.36022 | 14.66427 | 39820 ft | 478 kts | 167° |
| 2026-05-04 01:35 | 13.29681 | 14.68382 | 39822 ft | 479 kts | 167° |
| 2026-05-04 01:36 | 13.23284 | 14.70354 | 39840 ft | 480 kts | 166° |
| 2026-05-04 01:36 | 13.16873 | 14.72329 | 39834 ft | 482 kts | 166° |
| 2026-05-04 01:37 | 13.10441 | 14.74310 | 39831 ft | 481 kts | 167° |
| 2026-05-04 01:37 | 13.04030 | 14.76283 | 39822 ft | 481 kts | 166° |
| 2026-05-04 01:38 | 12.97658 | 14.78244 | 39829 ft | 480 kts | 166° |
| 2026-05-04 01:38 | 12.91262 | 14.80210 | 39825 ft | 479 kts | 166° |
| 2026-05-04 01:39 | 12.84876 | 14.82172 | 39814 ft | 478 kts | 166° |
| 2026-05-04 01:39 | 12.78495 | 14.84132 | 39823 ft | 478 kts | 166° |
| 2026-05-04 01:40 | 12.72120 | 14.86088 | 39820 ft | 479 kts | 166° |
| 2026-05-04 01:40 | 12.65714 | 14.88054 | 39824 ft | 482 kts | 166° |
| 2026-05-04 01:41 | 12.59282 | 14.90026 | 39829 ft | 483 kts | 166° |
| 2026-05-04 01:41 | 12.52884 | 14.91987 | 39839 ft | 483 kts | 166° |
| 2026-05-04 01:42 | 12.46441 | 14.93960 | 39826 ft | 483 kts | 166° |
| 2026-05-04 01:42 | 12.40005 | 14.95931 | 39822 ft | 482 kts | 166° |
| 2026-05-04 01:43 | 12.33610 | 14.97887 | 39822 ft | 482 kts | 166° |
| 2026-05-04 01:43 | 12.27159 | 14.99860 | 39825 ft | 483 kts | 166° |
| 2026-05-04 01:44 | 12.20708 | 15.01832 | 39836 ft | 484 kts | 166° |
| 2026-05-04 01:44 | 12.14228 | 15.03736 | 39838 ft | 482 kts | 174° |
| 2026-05-04 01:45 | 12.07584 | 15.04478 | 39835 ft | 480 kts | 178° |
| 2026-05-04 01:45 | 11.97606 | 15.05426 | 39838 ft | 479 kts | 177° |
| 2026-05-04 01:46 | 11.90955 | 15.06066 | 39827 ft | 480 kts | 177° |
| 2026-05-04 01:46 | 11.84336 | 15.06702 | 39834 ft | 480 kts | 177° |
| 2026-05-04 01:47 | 11.77663 | 15.07345 | 39826 ft | 481 kts | 177° |
| 2026-05-04 01:47 | 11.70981 | 15.07986 | 39828 ft | 482 kts | 177° |
| 2026-05-04 01:48 | 11.64305 | 15.08628 | 39833 ft | 481 kts | 177° |
| 2026-05-04 01:48 | 11.57692 | 15.09262 | 39814 ft | 480 kts | 177° |
| 2026-05-04 01:49 | 11.51041 | 15.09900 | 39813 ft | 480 kts | 177° |
| 2026-05-04 01:49 | 11.44396 | 15.10537 | 39812 ft | 479 kts | 177° |
| 2026-05-04 01:50 | 11.37743 | 15.11175 | 39812 ft | 479 kts | 177° |
| 2026-05-04 01:50 | 11.31096 | 15.11812 | 39810 ft | 479 kts | 177° |
| 2026-05-04 01:51 | 11.24485 | 15.12445 | 39808 ft | 479 kts | 176° |
| 2026-05-04 01:51 | 11.17856 | 15.13080 | 39810 ft | 478 kts | 176° |
| 2026-05-04 01:52 | 11.11232 | 15.13714 | 39814 ft | 477 kts | 176° |
| 2026-05-04 01:52 | 11.04612 | 15.14347 | 39811 ft | 477 kts | 176° |
| 2026-05-04 01:53 | 10.97995 | 15.14979 | 39821 ft | 478 kts | 176° |
| 2026-05-04 01:53 | 10.91345 | 15.15614 | 39817 ft | 480 kts | 176° |
| 2026-05-04 01:54 | 10.84709 | 15.16249 | 39830 ft | 483 kts | 176° |
| 2026-05-04 01:54 | 10.78017 | 15.16888 | 39825 ft | 482 kts | 176° |
| 2026-05-04 01:55 | 10.71336 | 15.17525 | 39827 ft | 481 kts | 176° |
| 2026-05-04 01:55 | 10.64666 | 15.18161 | 39819 ft | 480 kts | 176° |
| 2026-05-04 01:56 | 10.58015 | 15.18795 | 39820 ft | 480 kts | 176° |
| 2026-05-04 01:56 | 10.51359 | 15.19430 | 39822 ft | 480 kts | 176° |
| 2026-05-04 01:57 | 10.44752 | 15.20059 | 39822 ft | 480 kts | 176° |
| 2026-05-04 01:57 | 10.38087 | 15.20694 | 39823 ft | 480 kts | 176° |
| 2026-05-04 01:58 | 10.31426 | 15.21328 | 39824 ft | 481 kts | 176° |
| 2026-05-04 01:58 | 10.24757 | 15.21962 | 39830 ft | 481 kts | 176° |
| 2026-05-04 01:59 | 10.18132 | 15.22592 | 39834 ft | 481 kts | 176° |
| 2026-05-04 01:59 | 10.11454 | 15.23227 | 39830 ft | 481 kts | 176° |
| 2026-05-04 02:00 | 10.04780 | 15.23861 | 39831 ft | 482 kts | 176° |
| 2026-05-04 02:00 | 9.98096 | 15.24497 | 39834 ft | 482 kts | 176° |
| 2026-05-04 02:01 | 9.91449 | 15.25131 | 39845 ft | 483 kts | 176° |
| 2026-05-04 02:01 | 9.84751 | 15.25768 | 39845 ft | 483 kts | 176° |
| 2026-05-04 02:02 | 9.78068 | 15.26405 | 39843 ft | 481 kts | 176° |
| 2026-05-04 02:02 | 9.71411 | 15.27038 | 39848 ft | 479 kts | 176° |
| 2026-05-04 02:03 | 9.64770 | 15.27669 | 39848 ft | 479 kts | 176° |
| 2026-05-04 02:03 | 9.58109 | 15.28302 | 39851 ft | 481 kts | 176° |
| 2026-05-04 02:04 | 9.51444 | 15.28935 | 39852 ft | 482 kts | 176° |
| 2026-05-04 02:04 | 9.44790 | 15.29567 | 39867 ft | 484 kts | 176° |
| 2026-05-04 02:05 | 9.38069 | 15.30206 | 39864 ft | 485 kts | 176° |
| 2026-05-04 02:05 | 9.31358 | 15.30840 | 39866 ft | 483 kts | 176° |
| 2026-05-04 02:06 | 9.24662 | 15.31474 | 39861 ft | 482 kts | 176° |
| 2026-05-04 02:06 | 9.17987 | 15.32104 | 39856 ft | 481 kts | 176° |
| 2026-05-04 02:07 | 9.11358 | 15.32731 | 39855 ft | 482 kts | 176° |
| 2026-05-04 02:07 | 9.04666 | 15.33363 | 39863 ft | 484 kts | 176° |
| 2026-05-04 02:08 | 8.97945 | 15.33998 | 39867 ft | 485 kts | 176° |
| 2026-05-04 02:08 | 8.91219 | 15.34633 | 39874 ft | 485 kts | 176° |
| 2026-05-04 02:09 | 8.84510 | 15.35266 | 39872 ft | 483 kts | 176° |
| 2026-05-04 02:09 | 8.77861 | 15.35893 | 39870 ft | 482 kts | 176° |
| 2026-05-04 02:10 | 8.71170 | 15.36524 | 39867 ft | 484 kts | 176° |
| 2026-05-04 02:10 | 8.64449 | 15.37158 | 39873 ft | 486 kts | 176° |
| 2026-05-04 02:11 | 8.57709 | 15.37793 | 39876 ft | 486 kts | 176° |
| 2026-05-04 02:11 | 8.50979 | 15.38427 | 39878 ft | 486 kts | 176° |
| 2026-05-04 02:12 | 8.44245 | 15.39061 | 39876 ft | 486 kts | 176° |
| 2026-05-04 02:12 | 8.37514 | 15.39695 | 39875 ft | 486 kts | 176° |
| 2026-05-04 02:13 | 8.30775 | 15.40329 | 39881 ft | 486 kts | 176° |
| 2026-05-04 02:13 | 8.24027 | 15.40963 | 39884 ft | 487 kts | 176° |
| 2026-05-04 02:14 | 8.17314 | 15.41595 | 39894 ft | 487 kts | 176° |
| 2026-05-04 02:14 | 8.10577 | 15.42228 | 39889 ft | 486 kts | 176° |
| 2026-05-04 02:15 | 8.03836 | 15.42861 | 39886 ft | 484 kts | 175° |
| 2026-05-04 02:15 | 7.97125 | 15.43492 | 39882 ft | 484 kts | 175° |
| 2026-05-04 02:16 | 7.90407 | 15.44123 | 39888 ft | 484 kts | 175° |
| 2026-05-04 02:16 | 7.83731 | 15.44751 | 39900 ft | 485 kts | 175° |
| 2026-05-04 02:17 | 7.77004 | 15.45382 | 39898 ft | 486 kts | 175° |
| 2026-05-04 02:17 | 7.70258 | 15.46016 | 39904 ft | 486 kts | 175° |
| 2026-05-04 02:18 | 7.63509 | 15.46649 | 39909 ft | 488 kts | 175° |
| 2026-05-04 02:18 | 7.57881 | 15.47177 | 39925 ft | 489 kts | 175° |
| 2026-05-04 02:19 | 7.51111 | 15.47812 | 39925 ft | 488 kts | 175° |
| 2026-05-04 02:19 | 7.44352 | 15.48446 | 39940 ft | 487 kts | 175° |
| 2026-05-04 02:20 | 7.37591 | 15.49079 | 39934 ft | 486 kts | 175° |
| 2026-05-04 02:20 | 7.30890 | 15.49707 | 39956 ft | 486 kts | 175° |
| 2026-05-04 02:21 | 7.24158 | 15.50338 | 39954 ft | 486 kts | 175° |
| 2026-05-04 02:21 | 7.17417 | 15.50969 | 39957 ft | 486 kts | 175° |
| 2026-05-04 02:22 | 7.10674 | 15.51601 | 39957 ft | 487 kts | 175° |
| 2026-05-04 02:22 | 7.03936 | 15.52231 | 39954 ft | 486 kts | 175° |
| 2026-05-04 02:23 | 6.97195 | 15.52862 | 39968 ft | 486 kts | 175° |
| 2026-05-04 02:23 | 6.90488 | 15.53489 | 39970 ft | 486 kts | 175° |
| 2026-05-04 02:24 | 6.83751 | 15.54118 | 39976 ft | 486 kts | 175° |
| 2026-05-04 02:24 | 6.77012 | 15.54747 | 39980 ft | 486 kts | 175° |
| 2026-05-04 02:25 | 6.70270 | 15.55377 | 39975 ft | 486 kts | 175° |
| 2026-05-04 02:25 | 6.63537 | 15.56005 | 39978 ft | 486 kts | 175° |
| 2026-05-04 02:26 | 6.56796 | 15.56633 | 39979 ft | 486 kts | 175° |
| 2026-05-04 02:26 | 6.50074 | 15.57261 | 39972 ft | 484 kts | 175° |
| 2026-05-04 02:27 | 6.43360 | 15.57887 | 39975 ft | 484 kts | 175° |
| 2026-05-04 02:27 | 6.36651 | 15.58512 | 39975 ft | 484 kts | 175° |
| 2026-05-04 02:28 | 6.29978 | 15.59134 | 39967 ft | 485 kts | 175° |
| 2026-05-04 02:28 | 6.23256 | 15.59761 | 39971 ft | 485 kts | 175° |
| 2026-05-04 02:29 | 6.16524 | 15.60388 | 39970 ft | 486 kts | 175° |
| 2026-05-04 02:29 | 6.09777 | 15.61016 | 39967 ft | 487 kts | 175° |
| 2026-05-04 02:30 | 6.03031 | 15.61645 | 39965 ft | 487 kts | 175° |
| 2026-05-04 02:30 | 5.96280 | 15.62273 | 39957 ft | 487 kts | 175° |
| 2026-05-04 02:31 | 5.89530 | 15.62901 | 39958 ft | 486 kts | 175° |
| 2026-05-04 02:31 | 5.82783 | 15.63529 | 39946 ft | 487 kts | 175° |
| 2026-05-04 02:32 | 5.76074 | 15.64153 | 39950 ft | 488 kts | 175° |
| 2026-05-04 02:32 | 5.69292 | 15.64783 | 39947 ft | 487 kts | 175° |
| 2026-05-04 02:33 | 5.62539 | 15.65411 | 39949 ft | 485 kts | 175° |
| 2026-05-04 02:33 | 5.55823 | 15.66035 | 39928 ft | 484 kts | 175° |
| 2026-05-04 02:34 | 5.49103 | 15.66663 | 39938 ft | 486 kts | 175° |
| 2026-05-04 02:34 | 5.42404 | 15.67287 | 39936 ft | 487 kts | 175° |
| 2026-05-04 02:35 | 5.35647 | 15.67917 | 39935 ft | 488 kts | 175° |
| 2026-05-04 02:35 | 5.28879 | 15.68547 | 39943 ft | 488 kts | 175° |
| 2026-05-04 02:36 | 5.22122 | 15.69177 | 39934 ft | 487 kts | 175° |
| 2026-05-04 02:36 | 5.15384 | 15.69804 | 39928 ft | 486 kts | 175° |
| 2026-05-04 02:37 | 5.08656 | 15.70431 | 39929 ft | 485 kts | 175° |
| 2026-05-04 02:37 | 5.01986 | 15.71052 | 39918 ft | 484 kts | 175° |
| 2026-05-04 02:38 | 4.95273 | 15.71676 | 39928 ft | 485 kts | 175° |
| 2026-05-04 02:38 | 4.88523 | 15.72304 | 39921 ft | 486 kts | 175° |
| 2026-05-04 02:39 | 4.81818 | 15.72928 | 39929 ft | 487 kts | 175° |
| 2026-05-04 02:39 | 4.75062 | 15.73554 | 39932 ft | 486 kts | 175° |
| 2026-05-04 02:40 | 4.68337 | 15.74178 | 39926 ft | 483 kts | 175° |
| 2026-05-04 02:40 | 4.61633 | 15.74799 | 39927 ft | 483 kts | 175° |
| 2026-05-04 02:41 | 4.54940 | 15.75419 | 39929 ft | 483 kts | 175° |
| 2026-05-04 02:41 | 4.48247 | 15.76039 | 39919 ft | 483 kts | 175° |
| 2026-05-04 02:42 | 4.41548 | 15.76660 | 39918 ft | 484 kts | 175° |
| 2026-05-04 02:42 | 4.34871 | 15.77279 | 39922 ft | 483 kts | 175° |
| 2026-05-04 02:43 | 4.28178 | 15.77899 | 39918 ft | 482 kts | 175° |
| 2026-05-04 02:43 | 4.21501 | 15.78329 | 39949 ft | 479 kts | 184° |
| 2026-05-04 02:44 | 4.14801 | 15.77988 | 39925 ft | 483 kts | 184° |
| 2026-05-04 02:44 | 4.08075 | 15.77668 | 39926 ft | 484 kts | 183° |
| 2026-05-04 02:45 | 4.01347 | 15.77343 | 39921 ft | 483 kts | 184° |
| 2026-05-04 02:45 | 3.94649 | 15.77019 | 39926 ft | 481 kts | 183° |
| 2026-05-04 02:46 | 3.88006 | 15.76699 | 39930 ft | 480 kts | 184° |
| 2026-05-04 02:46 | 3.81330 | 15.76377 | 39924 ft | 481 kts | 183° |
| 2026-05-04 02:47 | 3.74645 | 15.76055 | 39924 ft | 481 kts | 183° |
| 2026-05-04 02:47 | 3.67954 | 15.75732 | 39925 ft | 481 kts | 183° |
| 2026-05-04 02:48 | 3.61262 | 15.75409 | 39940 ft | 482 kts | 184° |
| 2026-05-04 02:48 | 3.54559 | 15.75086 | 39932 ft | 482 kts | 184° |
| 2026-05-04 02:49 | 3.47855 | 15.74763 | 39940 ft | 482 kts | 184° |
| 2026-05-04 02:49 | 3.41189 | 15.74442 | 39933 ft | 483 kts | 184° |
| 2026-05-04 02:50 | 3.34467 | 15.74118 | 39939 ft | 483 kts | 183° |
| 2026-05-04 02:50 | 3.27752 | 15.73795 | 39936 ft | 482 kts | 184° |
| 2026-05-04 02:51 | 3.21062 | 15.73472 | 39930 ft | 481 kts | 184° |
| 2026-05-04 02:51 | 3.14377 | 15.73151 | 39930 ft | 479 kts | 184° |
| 2026-05-04 02:52 | 3.07711 | 15.72830 | 39932 ft | 480 kts | 184° |
| 2026-05-04 02:52 | 3.01067 | 15.72510 | 39932 ft | 481 kts | 184° |
| 2026-05-04 02:53 | 2.94371 | 15.72187 | 39927 ft | 482 kts | 184° |
| 2026-05-04 02:53 | 2.87663 | 15.71864 | 39931 ft | 483 kts | 184° |
| 2026-05-04 02:54 | 2.80938 | 15.71541 | 39941 ft | 483 kts | 184° |
| 2026-05-04 02:54 | 2.74232 | 15.71218 | 39941 ft | 482 kts | 184° |
| 2026-05-04 02:55 | 2.64196 | 15.70734 | 39924 ft | 480 kts | 184° |
| 2026-05-04 02:56 | 2.57568 | 15.70414 | 39933 ft | 480 kts | 184° |
| 2026-05-04 02:56 | 2.50892 | 15.70093 | 39926 ft | 481 kts | 184° |
| 2026-05-04 02:57 | 2.44188 | 15.69770 | 39933 ft | 483 kts | 184° |
| 2026-05-04 02:57 | 2.37469 | 15.69446 | 39938 ft | 484 kts | 184° |
| 2026-05-04 02:58 | 2.30744 | 15.69122 | 39937 ft | 483 kts | 184° |
| 2026-05-04 02:58 | 2.24043 | 15.68800 | 39934 ft | 481 kts | 184° |
| 2026-05-04 02:59 | 2.17357 | 15.68478 | 39941 ft | 478 kts | 184° |
| 2026-05-04 02:59 | 2.10769 | 15.68160 | 39928 ft | 476 kts | 184° |
| 2026-05-04 03:00 | 2.04133 | 15.67841 | 39929 ft | 478 kts | 184° |
| 2026-05-04 03:00 | 1.97476 | 15.67521 | 39935 ft | 479 kts | 184° |
| 2026-05-04 03:01 | 1.90802 | 15.67199 | 39940 ft | 480 kts | 184° |
| 2026-05-04 03:01 | 1.84131 | 15.66878 | 39938 ft | 479 kts | 184° |
| 2026-05-04 03:02 | 1.77515 | 15.66559 | 39949 ft | 477 kts | 184° |
| 2026-05-04 03:02 | 1.70884 | 15.66240 | 39938 ft | 476 kts | 184° |
| 2026-05-04 03:03 | 1.64255 | 15.65921 | 39943 ft | 477 kts | 184° |
| 2026-05-04 03:03 | 1.57603 | 15.65601 | 39943 ft | 478 kts | 184° |
| 2026-05-04 03:04 | 1.50946 | 15.65281 | 39954 ft | 479 kts | 184° |
| 2026-05-04 03:04 | 1.44273 | 15.64959 | 39959 ft | 481 kts | 183° |
| 2026-05-04 03:05 | 1.37631 | 15.64641 | 39962 ft | 480 kts | 183° |
| 2026-05-04 03:05 | 1.30977 | 15.64320 | 39964 ft | 479 kts | 183° |
| 2026-05-04 03:06 | 1.24327 | 15.64000 | 39954 ft | 475 kts | 183° |
| 2026-05-04 03:06 | 1.17735 | 15.63683 | 39948 ft | 474 kts | 183° |
| 2026-05-04 03:07 | 1.11158 | 15.63366 | 39948 ft | 474 kts | 183° |
| 2026-05-04 03:07 | 1.04515 | 15.63047 | 39952 ft | 481 kts | 182° |
| 2026-05-04 03:08 | 0.98941 | 15.62780 | 39977 ft | 483 kts | 182° |
| 2026-05-04 03:08 | 0.91123 | 15.62403 | 39970 ft | 482 kts | 182° |
| 2026-05-04 03:09 | 0.85510 | 15.62133 | 39976 ft | 482 kts | 182° |
| 2026-05-04 03:09 | 0.78845 | 15.61812 | 39978 ft | 482 kts | 181° |
| 2026-05-04 03:10 | 0.72141 | 15.61490 | 39982 ft | 482 kts | 182° |
| 2026-05-04 03:10 | 0.65406 | 15.61166 | 39982 ft | 485 kts | 182° |
| 2026-05-04 03:11 | 0.58662 | 15.60841 | 39975 ft | 485 kts | 181° |
| 2026-05-04 03:11 | 0.51909 | 15.60517 | 39982 ft | 485 kts | 182° |
| 2026-05-04 03:12 | 0.45172 | 15.60193 | 39988 ft | 485 kts | 182° |
| 2026-05-04 03:12 | 0.38472 | 15.59871 | 39972 ft | 485 kts | 182° |
| 2026-05-04 03:13 | 0.31726 | 15.59546 | 39976 ft | 487 kts | 182° |
| 2026-05-04 03:13 | 0.24944 | 15.59220 | 39977 ft | 488 kts | 182° |
| 2026-05-04 03:14 | 0.18170 | 15.58894 | 39971 ft | 487 kts | 182° |
| 2026-05-04 03:14 | 0.11395 | 15.58568 | 39980 ft | 487 kts | 182° |
| 2026-05-04 03:15 | 0.04621 | 15.58242 | 39972 ft | 487 kts | 182° |
| 2026-05-04 03:15 | -0.02114 | 15.57916 | 39979 ft | 487 kts | 184° |
| 2026-05-04 03:16 | -0.08879 | 15.57398 | 39973 ft | 487 kts | 183° |
| 2026-05-04 03:16 | -0.15651 | 15.56921 | 39978 ft | 487 kts | 184° |
| 2026-05-04 03:17 | -0.22421 | 15.56394 | 39975 ft | 488 kts | 184° |
| 2026-05-04 03:17 | -0.29197 | 15.55902 | 39975 ft | 488 kts | 184° |
| 2026-05-04 03:18 | -0.35968 | 15.55387 | 39978 ft | 488 kts | 184° |
| 2026-05-04 03:18 | -0.42696 | 15.54890 | 39975 ft | 487 kts | 184° |
| 2026-05-04 03:19 | -0.49465 | 15.54382 | 39979 ft | 487 kts | 184° |
| 2026-05-04 03:19 | -0.56235 | 15.53878 | 39975 ft | 488 kts | 184° |
| 2026-05-04 03:20 | -0.63006 | 15.53371 | 39970 ft | 488 kts | 184° |
| 2026-05-04 03:20 | -0.69777 | 15.52866 | 39967 ft | 488 kts | 184° |
| 2026-05-04 03:21 | -0.76550 | 15.52359 | 39966 ft | 486 kts | 184° |
| 2026-05-04 03:21 | -0.83248 | 15.51860 | 39968 ft | 485 kts | 184° |
| 2026-05-04 03:22 | -0.89984 | 15.51356 | 39973 ft | 485 kts | 184° |
| 2026-05-04 03:22 | -0.96722 | 15.50853 | 39965 ft | 485 kts | 184° |
| 2026-05-04 03:23 | -1.03416 | 15.50353 | 39961 ft | 485 kts | 184° |
| 2026-05-04 03:23 | -1.10143 | 15.49850 | 39964 ft | 484 kts | 184° |
| 2026-05-04 03:24 | -1.16867 | 15.49348 | 39957 ft | 484 kts | 184° |
| 2026-05-04 03:24 | -1.23595 | 15.48847 | 39960 ft | 484 kts | 184° |
| 2026-05-04 03:25 | -1.30333 | 15.48345 | 39962 ft | 485 kts | 184° |
| 2026-05-04 03:25 | -1.37054 | 15.47844 | 39957 ft | 484 kts | 184° |
| 2026-05-04 03:26 | -1.43783 | 15.47344 | 39955 ft | 484 kts | 184° |
| 2026-05-04 03:26 | -1.50510 | 15.46843 | 39949 ft | 486 kts | 184° |
| 2026-05-04 03:27 | -1.57229 | 15.46343 | 39952 ft | 487 kts | 184° |
| 2026-05-04 03:27 | -1.64013 | 15.45837 | 39958 ft | 488 kts | 184° |
| 2026-05-04 03:28 | -1.70787 | 15.45333 | 39961 ft | 488 kts | 184° |
| 2026-05-04 03:28 | -1.77565 | 15.44828 | 39962 ft | 488 kts | 184° |
| 2026-05-04 03:29 | -1.84290 | 15.44319 | 39954 ft | 488 kts | 184° |
| 2026-05-04 03:29 | -1.91070 | 15.43750 | 39953 ft | 488 kts | 184° |
| 2026-05-04 03:30 | -1.97850 | 15.43209 | 39956 ft | 489 kts | 184° |
| 2026-05-04 03:30 | -2.04642 | 15.42653 | 39959 ft | 489 kts | 184° |
| 2026-05-04 03:31 | -2.11433 | 15.42104 | 39967 ft | 489 kts | 184° |
| 2026-05-04 03:31 | -2.18173 | 15.41556 | 39969 ft | 489 kts | 184° |
| 2026-05-04 03:32 | -2.24954 | 15.41005 | 39970 ft | 489 kts | 184° |
| 2026-05-04 03:32 | -2.31741 | 15.40454 | 39970 ft | 489 kts | 184° |
| 2026-05-04 03:33 | -2.38527 | 15.39903 | 39975 ft | 489 kts | 184° |
| 2026-05-04 03:33 | -2.45317 | 15.39352 | 39975 ft | 490 kts | 184° |
| 2026-05-04 03:34 | -2.52124 | 15.38799 | 39981 ft | 490 kts | 184° |
| 2026-05-04 03:34 | -2.58929 | 15.38246 | 39984 ft | 490 kts | 184° |
| 2026-05-04 03:35 | -2.65753 | 15.37691 | 39987 ft | 492 kts | 184° |
| 2026-05-04 03:35 | -2.72526 | 15.37141 | 39981 ft | 491 kts | 184° |
| 2026-05-04 03:36 | -2.79325 | 15.36588 | 39979 ft | 490 kts | 184° |
| 2026-05-04 03:36 | -2.86127 | 15.36035 | 39977 ft | 490 kts | 184° |
| 2026-05-04 03:37 | -2.92929 | 15.35483 | 39970 ft | 490 kts | 184° |
| 2026-05-04 03:37 | -2.99732 | 15.34930 | 39970 ft | 491 kts | 184° |
| 2026-05-04 03:38 | -3.06555 | 15.34375 | 39977 ft | 491 kts | 184° |
| 2026-05-04 03:38 | -3.13333 | 15.33824 | 39978 ft | 492 kts | 184° |
| 2026-05-04 03:39 | -3.20162 | 15.33268 | 39979 ft | 491 kts | 184° |
| 2026-05-04 03:39 | -3.26989 | 15.32713 | 39980 ft | 492 kts | 184° |
| 2026-05-04 03:40 | -3.33808 | 15.32158 | 39975 ft | 491 kts | 185° |
| 2026-05-04 03:40 | -3.40624 | 15.31604 | 39984 ft | 491 kts | 185° |
| 2026-05-04 03:41 | -3.47394 | 15.31053 | 39980 ft | 491 kts | 185° |
| 2026-05-04 03:41 | -3.54208 | 15.30498 | 39984 ft | 491 kts | 185° |
| 2026-05-04 03:42 | -3.61030 | 15.29943 | 39985 ft | 492 kts | 185° |
| 2026-05-04 03:42 | -3.67853 | 15.29387 | 39989 ft | 491 kts | 185° |
| 2026-05-04 03:43 | -3.74629 | 15.28836 | 39982 ft | 491 kts | 185° |
| 2026-05-04 03:43 | -3.81440 | 15.28281 | 39980 ft | 492 kts | 185° |
| 2026-05-04 03:44 | -3.88278 | 15.27724 | 39990 ft | 493 kts | 185° |
| 2026-05-04 03:44 | -3.95137 | 15.27165 | 39991 ft | 493 kts | 185° |
| 2026-05-04 03:45 | -4.01978 | 15.26608 | 39983 ft | 492 kts | 185° |
| 2026-05-04 03:45 | -4.08801 | 15.26052 | 39984 ft | 491 kts | 185° |
| 2026-05-04 03:46 | -4.15559 | 15.25501 | 39965 ft | 490 kts | 185° |
| 2026-05-04 03:46 | -4.18962 | 15.25362 | 39988 ft | 489 kts | 174° |
| 2026-05-04 03:46 | -4.22321 | 15.25883 | 39997 ft | 489 kts | 163° |
| 2026-05-04 03:46 | -4.25511 | 15.27072 | 40003 ft | 490 kts | 151° |
| 2026-05-04 03:47 | -4.28402 | 15.28880 | 40012 ft | 490 kts | 139° |
| 2026-05-04 03:47 | -4.33149 | 15.33773 | 39980 ft | 488 kts | 131° |
| 2026-05-04 03:48 | -4.37759 | 15.38742 | 39975 ft | 486 kts | 142° |
| 2026-05-04 03:48 | -4.40533 | 15.40614 | 39977 ft | 488 kts | 153° |
| 2026-05-04 03:48 | -4.43674 | 15.41919 | 39979 ft | 490 kts | 165° |
| 2026-05-04 03:49 | -4.50413 | 15.42954 | 39953 ft | 490 kts | 174° |
| 2026-05-04 03:49 | -4.57198 | 15.43651 | 39955 ft | 490 kts | 174° |
| 2026-05-04 03:50 | -4.63970 | 15.44386 | 39957 ft | 489 kts | 174° |
| 2026-05-04 03:50 | -4.70735 | 15.45100 | 39958 ft | 488 kts | 174° |
| 2026-05-04 03:51 | -4.77491 | 15.45823 | 39966 ft | 488 kts | 174° |
| 2026-05-04 03:51 | -4.84254 | 15.46543 | 39960 ft | 489 kts | 174° |
| 2026-05-04 03:52 | -4.90992 | 15.47261 | 39969 ft | 490 kts | 174° |
| 2026-05-04 03:52 | -4.97778 | 15.47985 | 39970 ft | 491 kts | 174° |
| 2026-05-04 03:53 | -5.04575 | 15.48710 | 39975 ft | 491 kts | 174° |
| 2026-05-04 03:53 | -5.11365 | 15.49434 | 39970 ft | 491 kts | 174° |
| 2026-05-04 03:54 | -5.18165 | 15.50159 | 39976 ft | 492 kts | 174° |
| 2026-05-04 03:54 | -5.24998 | 15.50889 | 39973 ft | 494 kts | 174° |
| 2026-05-04 03:55 | -5.31830 | 15.51618 | 39981 ft | 494 kts | 174° |
| 2026-05-04 03:55 | -5.37511 | 15.52225 | 39981 ft | 494 kts | 174° |
| 2026-05-04 03:56 | -5.44340 | 15.52954 | 39985 ft | 493 kts | 174° |
| 2026-05-04 03:56 | -5.52281 | 15.53802 | 39983 ft | 493 kts | 174° |
| 2026-05-04 03:57 | -5.57954 | 15.54408 | 39980 ft | 494 kts | 174° |
| 2026-05-04 03:57 | -5.64849 | 15.55145 | 39982 ft | 494 kts | 174° |
| 2026-05-04 03:58 | -5.75065 | 15.56237 | 39984 ft | 494 kts | 174° |
| 2026-05-04 03:58 | -5.81899 | 15.56968 | 39985 ft | 493 kts | 174° |
| 2026-05-04 03:59 | -5.88736 | 15.57700 | 39979 ft | 493 kts | 174° |
| 2026-05-04 03:59 | -5.95539 | 15.58432 | 39978 ft | 491 kts | 174° |
| 2026-05-04 04:00 | -6.02343 | 15.59162 | 39982 ft | 492 kts | 174° |
| 2026-05-04 04:00 | -6.09145 | 15.59894 | 39976 ft | 491 kts | 174° |
| 2026-05-04 04:01 | -6.15952 | 15.60625 | 39982 ft | 492 kts | 174° |
| 2026-05-04 04:01 | -6.22719 | 15.61353 | 39977 ft | 491 kts | 174° |
| 2026-05-04 04:02 | -6.29514 | 15.62084 | 39978 ft | 491 kts | 174° |
| 2026-05-04 04:02 | -6.36294 | 15.62813 | 39979 ft | 490 kts | 174° |
| 2026-05-04 04:03 | -6.43073 | 15.63543 | 39977 ft | 490 kts | 174° |
| 2026-05-04 04:03 | -6.49869 | 15.64274 | 39982 ft | 491 kts | 174° |
| 2026-05-04 04:04 | -6.56672 | 15.65007 | 39984 ft | 492 kts | 174° |
| 2026-05-04 04:04 | -6.63470 | 15.65738 | 39991 ft | 489 kts | 174° |
| 2026-05-04 04:05 | -6.70220 | 15.66466 | 39991 ft | 487 kts | 174° |
| 2026-05-04 04:05 | -6.76967 | 15.67193 | 39990 ft | 487 kts | 174° |
| 2026-05-04 04:06 | -6.83679 | 15.67917 | 39996 ft | 488 kts | 174° |
| 2026-05-04 04:06 | -6.90428 | 15.68644 | 39996 ft | 488 kts | 174° |
| 2026-05-04 04:07 | -6.97181 | 15.69372 | 39997 ft | 488 kts | 174° |
| 2026-05-04 04:07 | -7.03928 | 15.70100 | 40002 ft | 487 kts | 174° |
| 2026-05-04 04:08 | -7.10680 | 15.70829 | 40001 ft | 486 kts | 174° |
| 2026-05-04 04:08 | -7.17364 | 15.71550 | 40003 ft | 486 kts | 174° |
| 2026-05-04 04:09 | -7.24085 | 15.72276 | 40001 ft | 486 kts | 174° |
| 2026-05-04 04:09 | -7.30827 | 15.73004 | 40005 ft | 487 kts | 174° |
| 2026-05-04 04:10 | -7.37579 | 15.73734 | 40017 ft | 488 kts | 173° |
| 2026-05-04 04:10 | -7.44332 | 15.74463 | 40013 ft | 487 kts | 173° |
| 2026-05-04 04:11 | -7.51068 | 15.75192 | 40017 ft | 486 kts | 173° |
| 2026-05-04 04:11 | -7.57793 | 15.75919 | 40009 ft | 485 kts | 173° |
| 2026-05-04 04:12 | -7.64513 | 15.76646 | 40013 ft | 486 kts | 173° |
| 2026-05-04 04:12 | -7.71247 | 15.77376 | 40017 ft | 487 kts | 173° |
| 2026-05-04 04:13 | -7.77948 | 15.78105 | 40022 ft | 487 kts | 173° |
| 2026-05-04 04:13 | -7.84684 | 15.78836 | 40021 ft | 486 kts | 173° |
| 2026-05-04 04:14 | -7.91407 | 15.79567 | 40012 ft | 485 kts | 173° |
| 2026-05-04 04:14 | -7.98128 | 15.80298 | 40014 ft | 486 kts | 173° |
| 2026-05-04 04:15 | -8.04862 | 15.81030 | 40021 ft | 487 kts | 173° |
| 2026-05-04 04:15 | -8.11603 | 15.81765 | 40026 ft | 486 kts | 173° |
| 2026-05-04 04:16 | -8.18282 | 15.82493 | 40029 ft | 485 kts | 173° |
| 2026-05-04 04:16 | -8.24999 | 15.83226 | 40024 ft | 485 kts | 173° |
| 2026-05-04 04:17 | -8.31709 | 15.83959 | 40022 ft | 484 kts | 173° |
| 2026-05-04 04:17 | -8.38383 | 15.84687 | 40023 ft | 485 kts | 173° |
| 2026-05-04 04:18 | -8.45093 | 15.85414 | 40029 ft | 484 kts | 173° |
| 2026-05-04 04:18 | -8.51781 | 15.86141 | 40024 ft | 482 kts | 173° |
| 2026-05-04 04:19 | -8.58471 | 15.86868 | 40022 ft | 483 kts | 173° |
| 2026-05-04 04:19 | -8.65172 | 15.87596 | 40032 ft | 485 kts | 173° |
| 2026-05-04 04:20 | -8.71890 | 15.88327 | 40037 ft | 486 kts | 173° |
| 2026-05-04 04:20 | -8.78628 | 15.89059 | 40038 ft | 487 kts | 173° |
| 2026-05-04 04:21 | -8.85330 | 15.89789 | 40036 ft | 487 kts | 173° |
| 2026-05-04 04:21 | -8.92060 | 15.90522 | 40041 ft | 485 kts | 173° |
| 2026-05-04 04:22 | -8.98764 | 15.91252 | 40035 ft | 484 kts | 173° |
| 2026-05-04 04:22 | -9.05461 | 15.91982 | 40027 ft | 483 kts | 173° |
| 2026-05-04 04:23 | -9.12152 | 15.92712 | 40023 ft | 484 kts | 173° |
| 2026-05-04 04:23 | -9.18867 | 15.93444 | 40029 ft | 487 kts | 173° |
| 2026-05-04 04:24 | -9.25572 | 15.94176 | 40039 ft | 488 kts | 173° |
| 2026-05-04 04:24 | -9.32315 | 15.94912 | 40039 ft | 486 kts | 173° |
| 2026-05-04 04:25 | -9.39053 | 15.95647 | 40034 ft | 485 kts | 173° |
| 2026-05-04 04:25 | -9.45764 | 15.96381 | 40030 ft | 484 kts | 173° |
| 2026-05-04 04:26 | -9.52462 | 15.97114 | 40030 ft | 483 kts | 173° |
| 2026-05-04 04:26 | -9.59106 | 15.97842 | 40030 ft | 484 kts | 173° |
| 2026-05-04 04:27 | -9.65812 | 15.98576 | 40033 ft | 485 kts | 173° |
| 2026-05-04 04:27 | -9.72533 | 15.99313 | 40046 ft | 486 kts | 173° |
| 2026-05-04 04:28 | -9.79275 | 16.00052 | 40048 ft | 487 kts | 173° |
| 2026-05-04 04:28 | -9.86020 | 16.00792 | 40050 ft | 486 kts | 173° |
| 2026-05-04 04:29 | -9.92700 | 16.01525 | 40045 ft | 485 kts | 173° |
| 2026-05-04 04:29 | -9.99402 | 16.02261 | 40038 ft | 484 kts | 173° |
| 2026-05-04 04:30 | -10.06116 | 16.02998 | 40046 ft | 484 kts | 173° |
| 2026-05-04 04:30 | -10.12826 | 16.03735 | 40047 ft | 485 kts | 173° |
| 2026-05-04 04:31 | -10.19554 | 16.04471 | 40054 ft | 486 kts | 173° |
| 2026-05-04 04:31 | -10.26239 | 16.05205 | 40056 ft | 486 kts | 173° |
| 2026-05-04 04:32 | -10.32977 | 16.05945 | 40067 ft | 487 kts | 173° |
| 2026-05-04 04:32 | -10.39710 | 16.06684 | 40069 ft | 486 kts | 173° |
| 2026-05-04 04:33 | -10.46453 | 16.07425 | 40073 ft | 486 kts | 173° |
| 2026-05-04 04:33 | -10.53180 | 16.08164 | 40071 ft | 486 kts | 173° |
| 2026-05-04 04:34 | -10.59903 | 16.08903 | 40075 ft | 485 kts | 173° |
| 2026-05-04 04:34 | -10.66591 | 16.09639 | 40076 ft | 485 kts | 173° |
| 2026-05-04 04:35 | -10.73316 | 16.10379 | 40078 ft | 486 kts | 173° |
| 2026-05-04 04:35 | -10.80046 | 16.11120 | 40085 ft | 486 kts | 173° |
| 2026-05-04 04:36 | -10.86767 | 16.11860 | 40087 ft | 485 kts | 173° |
| 2026-05-04 04:36 | -10.93510 | 16.12604 | 40079 ft | 491 kts | 173° |
| 2026-05-04 04:37 | -11.07129 | 16.14119 | 40091 ft | 494 kts | 173° |
| 2026-05-04 04:38 | -11.13966 | 16.14879 | 40088 ft | 493 kts | 173° |
| 2026-05-04 04:38 | -11.20790 | 16.15638 | 40096 ft | 493 kts | 173° |
| 2026-05-04 04:39 | -11.27616 | 16.16398 | 40096 ft | 493 kts | 173° |
| 2026-05-04 04:39 | -11.34394 | 16.17153 | 40101 ft | 493 kts | 173° |
| 2026-05-04 04:40 | -11.41207 | 16.17912 | 40103 ft | 493 kts | 173° |
| 2026-05-04 04:40 | -11.48025 | 16.18672 | 40104 ft | 492 kts | 173° |
| 2026-05-04 04:41 | -11.54837 | 16.19432 | 40103 ft | 492 kts | 173° |
| 2026-05-04 04:41 | -11.60497 | 16.20064 | 40105 ft | 491 kts | 173° |
| 2026-05-04 04:42 | -11.67286 | 16.20821 | 40105 ft | 490 kts | 173° |
| 2026-05-04 04:42 | -11.74067 | 16.21579 | 40104 ft | 490 kts | 173° |
| 2026-05-04 04:43 | -11.80856 | 16.22337 | 40108 ft | 491 kts | 173° |
| 2026-05-04 04:43 | -11.87674 | 16.23099 | 40112 ft | 492 kts | 173° |
| 2026-05-04 04:44 | -11.94481 | 16.23861 | 40112 ft | 493 kts | 174° |
| 2026-05-04 04:44 | -12.01275 | 16.24621 | 40117 ft | 495 kts | 174° |
| 2026-05-04 04:45 | -12.08131 | 16.25388 | 40119 ft | 495 kts | 174° |
| 2026-05-04 04:47 | -12.32009 | 16.28042 | 40107 ft | 494 kts | 174° |
| 2026-05-04 04:47 | -12.38857 | 16.28792 | 40112 ft | 496 kts | 174° |
| 2026-05-04 04:48 | -12.45689 | 16.29540 | 40116 ft | 496 kts | 174° |
| 2026-05-04 04:49 | -12.62869 | 16.31423 | 40124 ft | 496 kts | 174° |
| 2026-05-04 04:49 | -12.69699 | 16.32173 | 40124 ft | 497 kts | 174° |
| 2026-05-04 04:50 | -12.76576 | 16.32927 | 40123 ft | 498 kts | 174° |
| 2026-05-04 04:50 | -12.83481 | 16.33686 | 40124 ft | 498 kts | 174° |
| 2026-05-04 04:51 | -12.90377 | 16.34444 | 40121 ft | 497 kts | 174° |
| 2026-05-04 04:51 | -12.97245 | 16.35199 | 40118 ft | 495 kts | 174° |
| 2026-05-04 04:52 | -13.04044 | 16.35947 | 40113 ft | 494 kts | 174° |
| 2026-05-04 04:52 | -13.10897 | 16.36701 | 40113 ft | 495 kts | 174° |
| 2026-05-04 04:53 | -13.17750 | 16.37456 | 40114 ft | 495 kts | 174° |
| 2026-05-04 04:53 | -13.24617 | 16.38212 | 40116 ft | 496 kts | 174° |
| 2026-05-04 04:54 | -13.31487 | 16.38970 | 40126 ft | 496 kts | 174° |
| 2026-05-04 04:54 | -13.38317 | 16.39723 | 40126 ft | 497 kts | 174° |
| 2026-05-04 04:55 | -13.45208 | 16.40484 | 40124 ft | 498 kts | 174° |
| 2026-05-04 04:55 | -13.52077 | 16.41243 | 40125 ft | 497 kts | 174° |
| 2026-05-04 04:56 | -13.58957 | 16.42003 | 40124 ft | 496 kts | 174° |
| 2026-05-04 04:56 | -13.65824 | 16.42762 | 40123 ft | 495 kts | 174° |
| 2026-05-04 04:57 | -13.72683 | 16.43521 | 40126 ft | 497 kts | 175° |
| 2026-05-04 04:57 | -13.79531 | 16.44279 | 40129 ft | 498 kts | 175° |
| 2026-05-04 04:58 | -13.86430 | 16.45043 | 40131 ft | 498 kts | 175° |
| 2026-05-04 04:58 | -13.93347 | 16.45810 | 40135 ft | 498 kts | 175° |
| 2026-05-04 04:59 | -14.00205 | 16.46571 | 40139 ft | 498 kts | 175° |
| 2026-05-04 04:59 | -14.07116 | 16.47338 | 40133 ft | 500 kts | 175° |
| 2026-05-04 05:00 | -14.14052 | 16.48108 | 40135 ft | 501 kts | 175° |
| 2026-05-04 05:01 | -14.24456 | 16.49264 | 40144 ft | 500 kts | 175° |
| 2026-05-04 05:01 | -14.31362 | 16.50033 | 40141 ft | 498 kts | 175° |
| 2026-05-04 05:02 | -14.38251 | 16.50799 | 40131 ft | 498 kts | 175° |
| 2026-05-04 05:02 | -14.45162 | 16.51568 | 40134 ft | 501 kts | 175° |
| 2026-05-04 05:03 | -14.52069 | 16.52339 | 40142 ft | 502 kts | 175° |
| 2026-05-04 05:04 | -14.65947 | 16.53886 | 40133 ft | 500 kts | 175° |
| 2026-05-04 05:04 | -14.72855 | 16.54657 | 40129 ft | 499 kts | 175° |
| 2026-05-04 05:06 | -15.00468 | 16.57745 | 40133 ft | 501 kts | 175° |
| 2026-05-04 05:07 | -15.07421 | 16.58524 | 40130 ft | 503 kts | 175° |
| 2026-05-04 05:07 | -15.14374 | 16.59303 | 40129 ft | 502 kts | 175° |
| 2026-05-04 05:09 | -15.45605 | 16.62862 | 40124 ft | 506 kts | 176° |
| 2026-05-04 05:10 | -15.52557 | 16.63658 | 40123 ft | 505 kts | 175° |
| 2026-05-04 05:10 | -15.59539 | 16.64458 | 40124 ft | 504 kts | 175° |
| 2026-05-04 05:11 | -15.66507 | 16.65256 | 40119 ft | 503 kts | 176° |
| 2026-05-04 05:11 | -15.73467 | 16.66054 | 40124 ft | 503 kts | 176° |
| 2026-05-04 05:12 | -15.80438 | 16.66854 | 40117 ft | 504 kts | 176° |
| 2026-05-04 05:12 | -15.87412 | 16.67655 | 40120 ft | 505 kts | 176° |
| 2026-05-04 05:13 | -15.94403 | 16.68458 | 40118 ft | 506 kts | 176° |
| 2026-05-04 05:13 | -16.01357 | 16.69258 | 40119 ft | 506 kts | 176° |
| 2026-05-04 05:14 | -16.08362 | 16.70064 | 40111 ft | 506 kts | 176° |
| 2026-05-04 05:14 | -16.15345 | 16.70869 | 40113 ft | 503 kts | 176° |
| 2026-05-04 05:15 | -16.22295 | 16.71669 | 40096 ft | 503 kts | 176° |
| 2026-05-04 05:15 | -16.29257 | 16.72472 | 40101 ft | 503 kts | 176° |
| 2026-05-04 05:16 | -16.36218 | 16.73275 | 40102 ft | 503 kts | 176° |
| 2026-05-04 05:16 | -16.43136 | 16.74074 | 40118 ft | 504 kts | 176° |
| 2026-05-04 05:17 | -16.50119 | 16.74881 | 40108 ft | 505 kts | 176° |
| 2026-05-04 05:17 | -16.57119 | 16.75691 | 40119 ft | 506 kts | 176° |
| 2026-05-04 05:18 | -16.64118 | 16.76501 | 40120 ft | 505 kts | 176° |
| 2026-05-04 05:18 | -16.71103 | 16.77310 | 40114 ft | 504 kts | 176° |
| 2026-05-04 05:19 | -16.78035 | 16.78113 | 40119 ft | 504 kts | 176° |
| 2026-05-04 05:19 | -16.85009 | 16.78922 | 40104 ft | 504 kts | 176° |
| 2026-05-04 05:20 | -16.91994 | 16.79733 | 40106 ft | 504 kts | 176° |
| 2026-05-04 05:20 | -16.98975 | 16.80544 | 40113 ft | 505 kts | 176° |
| 2026-05-04 05:21 | -17.05924 | 16.81352 | 40108 ft | 506 kts | 177° |
| 2026-05-04 05:21 | -17.12939 | 16.82167 | 40111 ft | 507 kts | 177° |
| 2026-05-04 05:22 | -17.19957 | 16.82985 | 40111 ft | 507 kts | 177° |
| 2026-05-04 05:22 | -17.26963 | 16.83801 | 40109 ft | 505 kts | 177° |
| 2026-05-04 05:23 | -17.33950 | 16.84616 | 40100 ft | 504 kts | 177° |
| 2026-05-04 05:23 | -17.40927 | 16.85430 | 40110 ft | 504 kts | 177° |
| 2026-05-04 05:24 | -17.47869 | 16.86229 | 40105 ft | 505 kts | 178° |
| 2026-05-04 05:24 | -17.54865 | 16.87039 | 40105 ft | 506 kts | 177° |
| 2026-05-04 05:25 | -17.61880 | 16.87851 | 40104 ft | 507 kts | 177° |
| 2026-05-04 05:25 | -17.68908 | 16.88665 | 40106 ft | 508 kts | 177° |
| 2026-05-04 05:26 | -17.75943 | 16.89481 | 40098 ft | 508 kts | 178° |
| 2026-05-04 05:26 | -17.82959 | 16.90295 | 40094 ft | 506 kts | 178° |
| 2026-05-04 05:28 | -18.10953 | 16.93548 | 40094 ft | 507 kts | 178° |
| 2026-05-04 05:29 | -18.17948 | 16.94363 | 40098 ft | 508 kts | 178° |
| 2026-05-04 05:29 | -18.24986 | 16.95184 | 40106 ft | 509 kts | 178° |
| 2026-05-04 05:31 | -18.51899 | 16.98327 | 40096 ft | 507 kts | 178° |
| 2026-05-04 05:32 | -18.58863 | 16.99142 | 40092 ft | 506 kts | 178° |
| 2026-05-04 05:33 | -18.69376 | 17.00374 | 40100 ft | 507 kts | 179° |
| 2026-05-04 05:33 | -18.76406 | 17.01197 | 40106 ft | 509 kts | 179° |
| 2026-05-04 05:34 | -18.83462 | 17.02027 | 40106 ft | 510 kts | 179° |
| 2026-05-04 05:34 | -18.90500 | 17.02853 | 40105 ft | 508 kts | 179° |
| 2026-05-04 05:35 | -18.97532 | 17.03680 | 40098 ft | 506 kts | 179° |
| 2026-05-04 05:35 | -19.04508 | 17.04500 | 40114 ft | 508 kts | 179° |
| 2026-05-04 05:36 | -19.11549 | 17.05330 | 40113 ft | 509 kts | 179° |
| 2026-05-04 05:36 | -19.18594 | 17.06165 | 40114 ft | 509 kts | 178° |
| 2026-05-04 05:37 | -19.25623 | 17.07032 | 40120 ft | 508 kts | 178° |
| 2026-05-04 05:37 | -19.32657 | 17.07884 | 40126 ft | 508 kts | 179° |
| 2026-05-04 05:38 | -19.43170 | 17.09169 | 40119 ft | 509 kts | 179° |
| 2026-05-04 05:38 | -19.50212 | 17.10028 | 40120 ft | 510 kts | 179° |
| 2026-05-04 05:39 | -19.60798 | 17.11323 | 40119 ft | 510 kts | 179° |
| 2026-05-04 05:40 | -19.71408 | 17.12622 | 40131 ft | 512 kts | 179° |
| 2026-05-04 05:40 | -19.78450 | 17.13485 | 40138 ft | 512 kts | 179° |
| 2026-05-04 05:41 | -19.85538 | 17.14356 | 40132 ft | 511 kts | 179° |
| 2026-05-04 05:41 | -19.92594 | 17.15222 | 40134 ft | 510 kts | 179° |
| 2026-05-04 05:42 | -19.99648 | 17.16089 | 40132 ft | 510 kts | 179° |
| 2026-05-04 05:42 | -20.06708 | 17.16957 | 40135 ft | 511 kts | 179° |
| 2026-05-04 05:43 | -20.13785 | 17.17829 | 40136 ft | 512 kts | 179° |
| 2026-05-04 05:45 | -20.42169 | 17.21332 | 40140 ft | 514 kts | 180° |
| 2026-05-04 05:47 | -20.70444 | 17.24834 | 40121 ft | 512 kts | 180° |
| 2026-05-04 05:47 | -20.77522 | 17.25714 | 40129 ft | 512 kts | 180° |
| 2026-05-04 05:48 | -20.84614 | 17.26595 | 40140 ft | 513 kts | 180° |
| 2026-05-04 05:48 | -20.91716 | 17.27475 | 40147 ft | 514 kts | 180° |
| 2026-05-04 05:49 | -20.98826 | 17.28359 | 40135 ft | 513 kts | 180° |
| 2026-05-04 05:49 | -21.05917 | 17.29241 | 40136 ft | 513 kts | 180° |
| 2026-05-04 05:51 | -21.34193 | 17.32765 | 40131 ft | 511 kts | 180° |
| 2026-05-04 05:52 | -21.41212 | 17.33642 | 40135 ft | 511 kts | 180° |
| 2026-05-04 05:52 | -21.48286 | 17.34526 | 40142 ft | 512 kts | 180° |
| 2026-05-04 05:54 | -21.76697 | 17.38088 | 40145 ft | 513 kts | 180° |
| 2026-05-04 05:55 | -21.83798 | 17.38981 | 40146 ft | 512 kts | 180° |
| 2026-05-04 05:55 | -21.90848 | 17.39867 | 40136 ft | 513 kts | 180° |
| 2026-05-04 05:56 | -21.97950 | 17.40762 | 40137 ft | 514 kts | 180° |
| 2026-05-04 05:56 | -22.05075 | 17.41660 | 40140 ft | 515 kts | 180° |
| 2026-05-04 05:57 | -22.12194 | 17.42559 | 40143 ft | 516 kts | 180° |
| 2026-05-04 05:57 | -22.19336 | 17.43460 | 40185 ft | 517 kts | 180° |
| 2026-05-04 05:58 | -22.26419 | 17.44357 | 40222 ft | 514 kts | 180° |
| 2026-05-04 05:58 | -22.33521 | 17.45255 | 40257 ft | 512 kts | 180° |
| 2026-05-04 05:59 | -22.40620 | 17.46154 | 40292 ft | 513 kts | 180° |
| 2026-05-04 05:59 | -22.47692 | 17.47055 | 40290 ft | 515 kts | 179° |
| 2026-05-04 06:00 | -22.51248 | 17.47658 | 40138 ft | 517 kts | 179° |
| 2026-05-04 06:00 | -22.54808 | 17.48226 | 40145 ft | 517 kts | 179° |
| 2026-05-04 06:00 | -22.61934 | 17.49372 | 40137 ft | 518 kts | 178° |
| 2026-05-04 06:01 | -22.69076 | 17.50559 | 40132 ft | 517 kts | 179° |
| 2026-05-04 06:03 | -22.97494 | 17.55224 | 40105 ft | 516 kts | 178° |
| 2026-05-04 06:05 | -23.29500 | 17.60505 | 40104 ft | 519 kts | 178° |
| 2026-05-04 06:06 | -23.36640 | 17.61676 | 40094 ft | 518 kts | 178° |
| 2026-05-04 06:06 | -23.43788 | 17.62854 | 40091 ft | 520 kts | 178° |
| 2026-05-04 06:07 | -23.50955 | 17.64035 | 40090 ft | 520 kts | 178° |
| 2026-05-04 06:07 | -23.58108 | 17.65210 | 40091 ft | 520 kts | 179° |
| 2026-05-04 06:08 | -23.65266 | 17.66388 | 40091 ft | 520 kts | 178° |
| 2026-05-04 06:08 | -23.72400 | 17.67562 | 40091 ft | 523 kts | 179° |
| 2026-05-04 06:09 | -23.79590 | 17.68748 | 40092 ft | 523 kts | 179° |
| 2026-05-04 06:11 | -24.08426 | 17.73440 | 40092 ft | 525 kts | 179° |
| 2026-05-04 06:13 | -24.37163 | 17.78143 | 40068 ft | 521 kts | 179° |
| 2026-05-04 06:14 | -24.62313 | 17.82221 | 40080 ft | 524 kts | 179° |
| 2026-05-04 06:15 | -24.69540 | 17.83391 | 40083 ft | 524 kts | 179° |
| 2026-05-04 06:15 | -24.76726 | 17.84544 | 40084 ft | 524 kts | 179° |
| 2026-05-04 06:16 | -24.83941 | 17.85710 | 40077 ft | 523 kts | 179° |
| 2026-05-04 06:16 | -24.91171 | 17.86874 | 40065 ft | 526 kts | 179° |
| 2026-05-04 06:17 | -24.98420 | 17.88048 | 40064 ft | 526 kts | 179° |
| 2026-05-04 06:17 | -25.05676 | 17.89224 | 40059 ft | 526 kts | 179° |
| 2026-05-04 06:18 | -25.12924 | 17.90414 | 40065 ft | 527 kts | 179° |
| 2026-05-04 06:20 | -25.41930 | 17.95170 | 40060 ft | 527 kts | 179° |
| 2026-05-04 06:21 | -25.58921 | 17.97967 | 40067 ft | 530 kts | 179° |
| 2026-05-04 06:22 | -25.67414 | 17.99367 | 40068 ft | 531 kts | 179° |
| 2026-05-04 06:25 | -26.17578 | 18.07686 | 40063 ft | 536 kts | 179° |
| 2026-05-04 06:26 | -26.24957 | 18.08915 | 40065 ft | 536 kts | 179° |
| 2026-05-04 06:26 | -26.32331 | 18.10146 | 40063 ft | 537 kts | 179° |
| 2026-05-04 06:27 | -26.50846 | 18.13242 | 40060 ft | 538 kts | 179° |
| 2026-05-04 06:28 | -26.58246 | 18.14483 | 40062 ft | 538 kts | 179° |
| 2026-05-04 06:28 | -26.65671 | 18.15728 | 40071 ft | 541 kts | 180° |
| 2026-05-04 06:29 | -26.73070 | 18.16973 | 40070 ft | 541 kts | 180° |
| 2026-05-04 06:29 | -26.80514 | 18.18225 | 40072 ft | 540 kts | 180° |
| 2026-05-04 06:30 | -26.87947 | 18.19477 | 40105 ft | 541 kts | 180° |
| 2026-05-04 06:30 | -26.95427 | 18.20738 | 40072 ft | 543 kts | 180° |
| 2026-05-04 06:31 | -27.02848 | 18.21995 | 40070 ft | 542 kts | 180° |
| 2026-05-04 06:31 | -27.10320 | 18.23256 | 40075 ft | 543 kts | 180° |
| 2026-05-04 06:33 | -27.40247 | 18.28339 | 40075 ft | 543 kts | 180° |
| 2026-05-04 06:34 | -27.47715 | 18.29609 | 40076 ft | 544 kts | 180° |
| 2026-05-04 06:34 | -27.55152 | 18.30416 | 40086 ft | 537 kts | 185° |
| 2026-05-04 06:36 | -27.85122 | 18.32881 | 40099 ft | 541 kts | 185° |
| 2026-05-04 06:37 | -27.92596 | 18.33494 | 40102 ft | 541 kts | 185° |
| 2026-05-04 06:37 | -28.00100 | 18.34107 | 40137 ft | 541 kts | 185° |
| 2026-05-04 06:38 | -28.07623 | 18.34722 | 40088 ft | 542 kts | 185° |
| 2026-05-04 06:40 | -28.34023 | 18.39602 | 40097 ft | 555 kts | 178° |
| 2026-05-04 06:40 | -28.37823 | 18.40396 | 40099 ft | 554 kts | 178° |
| 2026-05-04 06:40 | -28.45403 | 18.41987 | 40095 ft | 553 kts | 178° |
| 2026-05-04 06:41 | -28.52973 | 18.43581 | 40074 ft | 552 kts | 178° |
| 2026-05-04 06:41 | -28.60543 | 18.45173 | 40090 ft | 554 kts | 178° |
| 2026-05-04 06:42 | -28.68070 | 18.46765 | 40093 ft | 553 kts | 178° |
| 2026-05-04 06:44 | -28.98441 | 18.53196 | 40094 ft | 557 kts | 178° |
| 2026-05-04 06:44 | -29.06008 | 18.54805 | 40096 ft | 556 kts | 178° |
| 2026-05-04 06:45 | -29.13489 | 18.56396 | 40103 ft | 558 kts | 179° |
| 2026-05-04 06:45 | -29.21121 | 18.58026 | 40086 ft | 557 kts | 179° |
| 2026-05-04 06:46 | -29.28748 | 18.59652 | 40084 ft | 557 kts | 179° |
| 2026-05-04 06:46 | -29.36354 | 18.61280 | 40112 ft | 556 kts | 179° |
| 2026-05-04 06:48 | -29.62662 | 18.61740 | 40125 ft | 542 kts | 190° |
| 2026-05-04 06:48 | -29.66427 | 18.61717 | 40112 ft | 540 kts | 192° |
| 2026-05-04 06:50 | -29.96517 | 18.62240 | 40106 ft | 542 kts | 190° |
| 2026-05-04 06:51 | -30.04061 | 18.62352 | 40114 ft | 542 kts | 189° |
| 2026-05-04 06:51 | -30.11626 | 18.62499 | 40112 ft | 543 kts | 190° |
| 2026-05-04 06:52 | -30.19145 | 18.62623 | 40103 ft | 545 kts | 190° |
| 2026-05-04 06:52 | -30.26724 | 18.62765 | 40106 ft | 542 kts | 190° |
| 2026-05-04 06:53 | -30.34251 | 18.62893 | 40094 ft | 541 kts | 190° |
| 2026-05-04 06:53 | -30.41778 | 18.63029 | 40087 ft | 540 kts | 190° |
| 2026-05-04 06:54 | -30.49313 | 18.63161 | 40087 ft | 541 kts | 190° |
| 2026-05-04 06:54 | -30.56793 | 18.63296 | 40086 ft | 541 kts | 190° |
| 2026-05-04 06:55 | -30.64335 | 18.63430 | 40085 ft | 541 kts | 190° |
| 2026-05-04 06:55 | -30.71865 | 18.63564 | 40086 ft | 542 kts | 190° |
| 2026-05-04 06:57 | -31.01933 | 18.64103 | 40058 ft | 542 kts | 189° |
| 2026-05-04 06:58 | -31.09483 | 18.64241 | 40049 ft | 541 kts | 190° |
| 2026-05-04 06:58 | -31.17015 | 18.64375 | 40050 ft | 540 kts | 190° |
| 2026-05-04 06:59 | -31.24498 | 18.64509 | 39932 ft | 543 kts | 189° |
| 2026-05-04 06:59 | -31.28303 | 18.64575 | 39587 ft | 545 kts | 190° |
| 2026-05-04 06:59 | -31.32090 | 18.64648 | 39249 ft | 544 kts | 190° |
| 2026-05-04 07:01 | -31.58150 | 18.65123 | 36372 ft | 521 kts | 190° |
| 2026-05-04 07:01 | -31.61760 | 18.65188 | 35954 ft | 517 kts | 189° |
| 2026-05-04 07:02 | -31.65388 | 18.65256 | 35542 ft | 512 kts | 189° |
| 2026-05-04 07:02 | -31.68935 | 18.65320 | 35138 ft | 508 kts | 189° |
| 2026-05-04 07:02 | -31.72411 | 18.65383 | 34740 ft | 504 kts | 189° |
| 2026-05-04 07:02 | -31.75906 | 18.65446 | 34373 ft | 500 kts | 189° |
| 2026-05-04 07:03 | -31.79380 | 18.65510 | 33977 ft | 497 kts | 189° |
| 2026-05-04 07:03 | -31.82836 | 18.65572 | 33515 ft | 496 kts | 189° |
| 2026-05-04 07:03 | -31.86283 | 18.65635 | 33059 ft | 493 kts | 189° |
| 2026-05-04 07:03 | -31.89711 | 18.65699 | 32620 ft | 490 kts | 189° |
| 2026-05-04 07:04 | -31.93116 | 18.65762 | 32188 ft | 488 kts | 189° |
| 2026-05-04 07:04 | -31.96507 | 18.65823 | 31769 ft | 485 kts | 189° |
| 2026-05-04 07:04 | -31.99826 | 18.65883 | 31350 ft | 483 kts | 188° |
| 2026-05-04 07:04 | -32.03182 | 18.65946 | 30992 ft | 481 kts | 189° |
| 2026-05-04 07:05 | -32.06534 | 18.66006 | 30584 ft | 481 kts | 189° |
| 2026-05-04 07:05 | -32.09883 | 18.66067 | 30188 ft | 481 kts | 188° |
| 2026-05-04 07:05 | -32.13225 | 18.66129 | 29740 ft | 479 kts | 188° |
| 2026-05-04 07:05 | -32.16550 | 18.66193 | 29269 ft | 476 kts | 188° |
| 2026-05-04 07:06 | -32.23113 | 18.66314 | 28357 ft | 468 kts | 188° |
| 2026-05-04 07:06 | -32.26354 | 18.66373 | 27910 ft | 463 kts | 188° |
| 2026-05-04 07:06 | -32.29570 | 18.66434 | 27505 ft | 459 kts | 188° |
| 2026-05-04 07:07 | -32.32751 | 18.66492 | 27068 ft | 456 kts | 188° |
| 2026-05-04 07:08 | -32.54255 | 18.66890 | 24427 ft | 428 kts | 188° |
| 2026-05-04 07:09 | -32.57186 | 18.66944 | 24155 ft | 426 kts | 188° |
| 2026-05-04 07:09 | -32.60151 | 18.66998 | 23887 ft | 426 kts | 188° |
| 2026-05-04 07:09 | -32.63119 | 18.67053 | 23617 ft | 424 kts | 188° |
| 2026-05-04 07:09 | -32.66069 | 18.67109 | 23301 ft | 423 kts | 188° |
| 2026-05-04 07:10 | -32.69009 | 18.67165 | 22979 ft | 421 kts | 188° |
| 2026-05-04 07:10 | -32.71932 | 18.67219 | 22671 ft | 419 kts | 188° |
| 2026-05-04 07:12 | -32.91945 | 18.67594 | 20569 ft | 405 kts | 188° |
| 2026-05-04 07:12 | -32.94751 | 18.67647 | 20275 ft | 402 kts | 188° |
| 2026-05-04 07:12 | -32.96636 | 18.67682 | 20069 ft | 400 kts | 189° |
| 2026-05-04 07:12 | -32.99423 | 18.67733 | 19783 ft | 399 kts | 189° |
| 2026-05-04 07:13 | -33.02192 | 18.67785 | 19501 ft | 396 kts | 188° |
| 2026-05-04 07:13 | -33.04910 | 18.67837 | 19233 ft | 395 kts | 189° |
| 2026-05-04 07:13 | -33.07652 | 18.67887 | 18955 ft | 393 kts | 189° |
| 2026-05-04 07:14 | -33.18543 | 18.68093 | 17776 ft | 386 kts | 188° |
| 2026-05-04 07:14 | -33.21220 | 18.68144 | 17459 ft | 383 kts | 188° |
| 2026-05-04 07:15 | -33.23850 | 18.68193 | 17149 ft | 381 kts | 188° |
| 2026-05-04 07:15 | -33.26495 | 18.68243 | 16838 ft | 378 kts | 187° |
| 2026-05-04 07:15 | -33.29117 | 18.68293 | 16531 ft | 375 kts | 187° |
| 2026-05-04 07:15 | -33.31725 | 18.68341 | 16248 ft | 374 kts | 187° |
| 2026-05-04 07:16 | -33.34326 | 18.68389 | 15952 ft | 373 kts | 187° |
| 2026-05-04 07:16 | -33.36914 | 18.68439 | 15657 ft | 370 kts | 187° |
| 2026-05-04 07:16 | -33.39486 | 18.68489 | 15367 ft | 368 kts | 186° |
| 2026-05-04 07:16 | -33.42036 | 18.68537 | 15066 ft | 365 kts | 186° |
| 2026-05-04 07:17 | -33.44566 | 18.68585 | 14778 ft | 363 kts | 186° |
| 2026-05-04 07:17 | -33.47079 | 18.68632 | 14490 ft | 360 kts | 186° |
| 2026-05-04 07:17 | -33.49582 | 18.68681 | 14206 ft | 358 kts | 185° |
| 2026-05-04 07:17 | -33.52035 | 18.68727 | 13903 ft | 355 kts | 185° |
| 2026-05-04 07:18 | -33.54497 | 18.68773 | 13622 ft | 352 kts | 185° |
| 2026-05-04 07:18 | -33.56948 | 18.68820 | 13333 ft | 353 kts | 185° |
| 2026-05-04 07:18 | -33.59401 | 18.68866 | 13013 ft | 352 kts | 185° |
| 2026-05-04 07:18 | -33.61843 | 18.68913 | 12702 ft | 350 kts | 185° |
| 2026-05-04 07:19 | -33.64274 | 18.68960 | 12389 ft | 348 kts | 185° |
| 2026-05-04 07:19 | -33.66687 | 18.69006 | 12084 ft | 346 kts | 185° |
| 2026-05-04 07:19 | -33.69090 | 18.69051 | 11773 ft | 344 kts | 185° |
| 2026-05-04 07:19 | -33.71456 | 18.69099 | 11468 ft | 335 kts | 185° |
| 2026-05-04 07:20 | -33.73769 | 18.69145 | 11160 ft | 330 kts | 185° |
| 2026-05-04 07:20 | -33.76025 | 18.69185 | 10864 ft | 327 kts | 185° |
| 2026-05-04 07:20 | -33.78329 | 18.69227 | 10557 ft | 325 kts | 185° |
| 2026-05-04 07:20 | -33.80554 | 18.69404 | 10277 ft | 331 kts | 171° |
| 2026-05-04 07:22 | -33.95400 | 18.74138 | 8293 ft | 292 kts | 169° |
| 2026-05-04 07:22 | -33.97352 | 18.74774 | 7986 ft | 287 kts | 169° |
| 2026-05-04 07:23 | -33.99260 | 18.75404 | 7697 ft | 281 kts | 169° |
| 2026-05-04 07:23 | -34.01122 | 18.76023 | 7431 ft | 274 kts | 169° |
| 2026-05-04 07:23 | -34.02934 | 18.76624 | 7239 ft | 264 kts | 169° |
| 2026-05-04 07:23 | -34.04679 | 18.77218 | 7061 ft | 258 kts | 169° |
| 2026-05-04 07:24 | -34.06391 | 18.77816 | 6870 ft | 255 kts | 169° |
| 2026-05-04 07:24 | -34.08084 | 18.78400 | 6670 ft | 256 kts | 169° |
| 2026-05-04 07:24 | -34.09775 | 18.78977 | 6472 ft | 251 kts | 169° |
| 2026-05-04 07:24 | -34.11452 | 18.79550 | 6267 ft | 250 kts | 169° |
| 2026-05-04 07:25 | -34.13122 | 18.80118 | 6043 ft | 248 kts | 169° |
| 2026-05-04 07:26 | -34.21002 | 18.78209 | 4268 ft | 178 kts | 288° |
| 2026-05-04 07:27 | -34.20490 | 18.76885 | 4024 ft | 171 kts | 294° |
| 2026-05-04 07:27 | -34.19974 | 18.75593 | 3809 ft | 170 kts | 293° |
| 2026-05-04 07:27 | -34.19470 | 18.74320 | 3601 ft | 166 kts | 292° |
| 2026-05-04 07:27 | -34.18979 | 18.73074 | 3407 ft | 163 kts | 292° |
| 2026-05-04 07:28 | -34.18492 | 18.71841 | 3169 ft | 161 kts | 292° |
| 2026-05-04 07:28 | -34.18011 | 18.70625 | 2993 ft | 158 kts | 293° |
| 2026-05-04 07:28 | -34.17545 | 18.69443 | 3010 ft | 152 kts | 293° |
| 2026-05-04 07:28 | -34.17095 | 18.68310 | 2998 ft | 148 kts | 293° |
| 2026-05-04 07:29 | -34.16649 | 18.67195 | 2990 ft | 147 kts | 295° |
| 2026-05-04 07:29 | -34.15855 | 18.66445 | 2889 ft | 158 kts | 341° |
| 2026-05-04 07:29 | -34.14779 | 18.66256 | 2999 ft | 156 kts | 338° |
| 2026-05-04 07:29 | -34.13785 | 18.65751 | 3200 ft | 154 kts | 328° |
| 2026-05-04 07:30 | -34.12727 | 18.65290 | 2970 ft | 171 kts | 337° |
| 2026-05-04 07:30 | -34.11590 | 18.64948 | 2768 ft | 164 kts | 339° |
| 2026-05-04 07:30 | -34.10514 | 18.64621 | 2542 ft | 157 kts | 338° |
| 2026-05-04 07:30 | -34.09431 | 18.64283 | 2357 ft | 163 kts | 338° |
| 2026-05-04 07:31 | -34.08336 | 18.63935 | 2140 ft | 163 kts | 338° |
| 2026-05-04 07:31 | -34.07249 | 18.63589 | 1920 ft | 158 kts | 339° |
| 2026-05-04 07:33 | -34.00334 | 18.61389 | 549 ft | 148 kts | 342° |
| 2026-05-04 07:33 | -33.99332 | 18.61060 | 312 ft | 148 kts | 345° |
| 2026-05-04 07:33 | -33.98379 | 18.60767 | 162 ft | 130 kts | 345° |
| 2026-05-04 07:33 | -33.97677 | 18.60541 | 159 ft | 88 kts | 346° |
| 2026-05-04 07:34 | -33.97189 | 18.60388 | 161 ft | 52 kts | 345° |
| 2026-05-04 07:34 | -33.96866 | 18.60285 | 162 ft | 43 kts | 345° |
| 2026-05-04 07:34 | -33.96608 | 18.60204 | 162 ft | 34 kts | 345° |
| 2026-05-04 07:34 | -33.96423 | 18.60090 | 161 ft | 28 kts | 315° |
| 2026-05-04 07:35 | -33.96297 | 18.59937 | 159 ft | 24 kts | 314° |
| 2026-05-04 07:35 | -33.96196 | 18.59807 | 159 ft | 18 kts | 299° |
| 2026-05-04 07:35 | -33.96192 | 18.59763 | 159 ft | 1 kts | 245° |
| 2026-05-04 07:35 | -33.96210 | 18.59743 | 159 ft | 6 kts | 214° |
| 2026-05-04 07:36 | -33.96249 | 18.59731 | 160 ft | 5 kts | 182° |
| 2026-05-04 07:36 | -33.96284 | 18.59733 | 160 ft | 5 kts | 174° |
| 2026-05-04 07:38 | -33.96756 | 18.59830 | 160 ft | 4 kts | 255° |
| 2026-05-04 07:38 | -33.96767 | 18.59783 | 160 ft | 5 kts | 255° |
| 2026-05-04 07:38 | -33.96771 | 18.59762 | 160 ft | 0 kts | 255° |